Wetterdaten: Montag, 26.10.2020
Datum Zeit Temp. Aussen Temp. o. S. Temp +5cm Feuchte Auss Luftdruck Regen Sonnenschein Regendauer Solar Windben Empfang
26.10.2020 00:00 9,9 C 8,9 C 8,4 C 96 % 1001,9 hPa 0,0 l/m 0 min 0 min 0 W/m 0,0 km/h (0 Bft) 100,00 %
26.10.2020 00:02 9,9 C 8,9 C 8,4 C 96 % 1001,9 hPa 0,0 l/m 0 min 0 min 0 W/m 0,0 km/h (0 Bft) 97,50 %
26.10.2020 00:04 9,9 C 8,9 C 8,4 C 96 % 1001,9 hPa 0,0 l/m 0 min 0 min 0 W/m 0,0 km/h (0 Bft) 100,00 %
26.10.2020 00:08 9,9 C 9,4 C 8,9 C 96 % 1002,0 hPa 0,0 l/m 0 min 0 min 0 W/m 0,0 km/h (0 Bft) 100,00 %
26.10.2020 00:10 9,9 C 9,4 C 8,9 C 96 % 1002,0 hPa 0,0 l/m 0 min 0 min 0 W/m 0,0 km/h (0 Bft) 97,87 %
26.10.2020 00:12 9,9 C 9,4 C 8,9 C 96 % 1002,0 hPa 0,0 l/m 0 min 0 min 0 W/m 0,0 km/h (0 Bft) 100,00 %
26.10.2020 00:14 9,9 C 9,4 C 8,9 C 96 % 1002,1 hPa 0,0 l/m 0 min 0 min 0 W/m 3,2 km/h (1 Bft) 100,00 %
26.10.2020 00:16 10,0 C 9,4 C 8,9 C 96 % 1002,0 hPa 0,0 l/m 0 min 0 min 0 W/m 3,2 km/h (1 Bft) 100,00 %
26.10.2020 00:18 10,0 C 10,0 C 8,9 C 96 % 1002,0 hPa 0,0 l/m 0 min 0 min 0 W/m 12,9 km/h (3 Bft) 97,87 %
26.10.2020 00:20 10,0 C 10,0 C 8,9 C 96 % 1002,0 hPa 0,0 l/m 0 min 0 min 0 W/m 12,9 km/h (3 Bft) 100,00 %
26.10.2020 00:22 10,0 C 10,0 C 8,9 C 96 % 1002,0 hPa 0,0 l/m 0 min 0 min 0 W/m 16,1 km/h (3 Bft) 100,00 %
26.10.2020 00:24 10,0 C 10,0 C 8,9 C 96 % 1002,0 hPa 0,0 l/m 0 min 0 min 0 W/m 0,0 km/h (0 Bft) 100,00 %
26.10.2020 00:26 10,0 C 10,0 C 8,9 C 96 % 1002,0 hPa 0,0 l/m 0 min 0 min 0 W/m 0,0 km/h (0 Bft) 97,87 %
26.10.2020 00:28 10,1 C 10,0 C 8,9 C 96 % 1002,1 hPa 0,0 l/m 0 min 0 min 0 W/m 0,0 km/h (0 Bft) 97,87 %
26.10.2020 00:30 10,1 C 10,0 C 8,9 C 96 % 1002,1 hPa 0,0 l/m 0 min 0 min 0 W/m 12,9 km/h (3 Bft) 97,87 %
26.10.2020 00:32 10,1 C 10,0 C 8,9 C 96 % 1002,1 hPa 0,0 l/m 0 min 0 min 0 W/m 6,4 km/h (2 Bft) 100,00 %
26.10.2020 00:34 10,1 C 10,0 C 8,9 C 96 % 1001,9 hPa 0,0 l/m 0 min 0 min 0 W/m 0,0 km/h (0 Bft) 97,87 %
26.10.2020 00:36 10,1 C 10,0 C 8,9 C 96 % 1001,8 hPa 0,0 l/m 0 min 0 min 0 W/m 0,0 km/h (0 Bft) 95,74 %
26.10.2020 00:38 10,1 C 10,0 C 8,9 C 97 % 1001,9 hPa 0,0 l/m 0 min 0 min 0 W/m 0,0 km/h (0 Bft) 97,87 %
26.10.2020 00:40 10,2 C 10,0 C 8,9 C 97 % 1001,9 hPa 0,0 l/m 0 min 0 min 0 W/m 0,0 km/h (0 Bft) 95,74 %
26.10.2020 00:42 10,2 C 10,0 C 8,9 C 97 % 1001,9 hPa 0,0 l/m 0 min 0 min 0 W/m 0,0 km/h (0 Bft) 93,48 %
26.10.2020 00:44 10,2 C 10,0 C 8,9 C 97 % 1001,9 hPa 0,0 l/m 0 min 0 min 0 W/m 0,0 km/h (0 Bft) 95,74 %
26.10.2020 00:46 10,3 C 10,0 C 8,9 C 96 % 1001,9 hPa 0,0 l/m 0 min 0 min 0 W/m 3,2 km/h (1 Bft) 93,62 %
26.10.2020 00:48 10,3 C 10,0 C 8,9 C 96 % 1001,9 hPa 0,0 l/m 0 min 0 min 0 W/m 0,0 km/h (0 Bft) 95,74 %
26.10.2020 00:50 10,3 C 10,0 C 8,9 C 96 % 1001,9 hPa 0,0 l/m 0 min 2 min 0 W/m 0,0 km/h (0 Bft) 95,74 %
26.10.2020 00:52 10,3 C 9,4 C 8,9 C 96 % 1001,8 hPa 0,0 l/m 0 min 0 min 0 W/m 0,0 km/h (0 Bft) 93,62 %
26.10.2020 00:54 10,3 C 9,4 C 8,9 C 96 % 1001,7 hPa 0,0 l/m 0 min 0 min 0 W/m 0,0 km/h (0 Bft) 95,65 %
26.10.2020 00:56 10,3 C 9,4 C 8,9 C 96 % 1001,7 hPa 0,0 l/m 0 min 0 min 0 W/m 0,0 km/h (0 Bft) 95,74 %
26.10.2020 00:58 10,3 C 9,4 C 8,9 C 96 % 1001,7 hPa 0,0 l/m 0 min 0 min 0 W/m 0,0 km/h (0 Bft) 95,74 %
26.10.2020 01:00 10,3 C 9,4 C 8,9 C 96 % 1001,7 hPa 0,0 l/m 0 min 0 min 0 W/m 0,0 km/h (0 Bft) 95,74 %
26.10.2020 01:02 10,3 C 9,4 C 8,9 C 96 % 1001,7 hPa 0,0 l/m 0 min 0 min 0 W/m 0,0 km/h (0 Bft) 93,62 %
26.10.2020 01:04 10,3 C 9,4 C 8,9 C 96 % 1001,7 hPa 0,0 l/m 0 min 0 min 0 W/m 0,0 km/h (0 Bft) 95,74 %
26.10.2020 01:06 10,4 C 9,4 C 8,9 C 96 % 1001,7 hPa 0,0 l/m 0 min 0 min 0 W/m 0,0 km/h (0 Bft) 95,65 %
26.10.2020 01:08 10,3 C 9,4 C 8,9 C 96 % 1001,7 hPa 0,0 l/m 0 min 0 min 0 W/m 0,0 km/h (0 Bft) 95,74 %
26.10.2020 01:10 10,4 C 9,4 C 8,9 C 96 % 1001,6 hPa 0,0 l/m 0 min 0 min 0 W/m 0,0 km/h (0 Bft) 91,49 %
26.10.2020 01:12 10,4 C 9,4 C 8,9 C 96 % 1001,5 hPa 0,0 l/m 0 min 0 min 0 W/m 0,0 km/h (0 Bft) 95,74 %
26.10.2020 01:14 10,4 C 9,4 C 8,9 C 96 % 1001,5 hPa 0,0 l/m 0 min 0 min 0 W/m 0,0 km/h (0 Bft) 95,74 %
26.10.2020 01:16 10,4 C 9,4 C 8,9 C 96 % 1001,5 hPa 0,0 l/m 0 min 0 min 0 W/m 0,0 km/h (0 Bft) 95,74 %
26.10.2020 01:18 10,4 C 9,4 C 8,9 C 96 % 1001,5 hPa 0,0 l/m 0 min 0 min 0 W/m 0,0 km/h (0 Bft) 95,65 %
26.10.2020 01:20 10,4 C 9,4 C 8,9 C 96 % 1001,4 hPa 0,0 l/m 0 min 0 min 0 W/m 3,2 km/h (1 Bft) 95,74 %
26.10.2020 01:22 10,4 C 9,4 C 8,9 C 96 % 1001,4 hPa 0,0 l/m 0 min 0 min 0 W/m 0,0 km/h (0 Bft) 95,74 %
26.10.2020 01:24 10,4 C 10,0 C 8,9 C 96 % 1001,3 hPa 0,0 l/m 0 min 0 min 0 W/m 0,0 km/h (0 Bft) 95,74 %
26.10.2020 01:26 10,4 C 10,0 C 8,9 C 96 % 1001,2 hPa 0,0 l/m 0 min 0 min 0 W/m 0,0 km/h (0 Bft) 93,62 %
26.10.2020 01:28 10,4 C 10,0 C 8,9 C 96 % 1001,2 hPa 0,0 l/m 0 min 0 min 0 W/m 0,0 km/h (0 Bft) 95,74 %
26.10.2020 01:30 10,4 C 9,4 C 8,9 C 96 % 1001,2 hPa 0,0 l/m 0 min 0 min 0 W/m 0,0 km/h (0 Bft) 95,65 %
26.10.2020 01:32 10,4 C 9,4 C 8,9 C 96 % 1001,2 hPa 0,0 l/m 0 min 0 min 0 W/m 0,0 km/h (0 Bft) 95,74 %
26.10.2020 01:34 10,4 C 9,4 C 8,9 C 96 % 1001,2 hPa 0,0 l/m 0 min 0 min 0 W/m 0,0 km/h (0 Bft) 97,87 %
26.10.2020 01:36 10,4 C 9,4 C 8,9 C 96 % 1001,1 hPa 0,0 l/m 0 min 0 min 0 W/m 0,0 km/h (0 Bft) 95,74 %
26.10.2020 01:38 10,4 C 9,4 C 8,9 C 96 % 1001,2 hPa 0,0 l/m 0 min 0 min 0 W/m 0,0 km/h (0 Bft) 97,87 %
26.10.2020 01:40 10,4 C 9,4 C 8,9 C 96 % 1001,3 hPa 0,0 l/m 0 min 0 min 0 W/m 0,0 km/h (0 Bft) 93,62 %
26.10.2020 01:42 10,4 C 9,4 C 8,9 C 96 % 1001,3 hPa 0,0 l/m 0 min 0 min 0 W/m 0,0 km/h (0 Bft) 97,83 %
26.10.2020 01:44 10,4 C 9,4 C 8,9 C 96 % 1001,3 hPa 0,0 l/m 0 min 2 min 0 W/m 0,0 km/h (0 Bft) 95,74 %
26.10.2020 01:46 10,4 C 10,0 C 8,9 C 96 % 1001,3 hPa 0,0 l/m 0 min 0 min 0 W/m 0,0 km/h (0 Bft) 93,62 %
26.10.2020 01:48 10,4 C 10,0 C 8,9 C 96 % 1001,3 hPa 0,0 l/m 0 min 0 min 0 W/m 0,0 km/h (0 Bft) 95,74 %
26.10.2020 01:50 10,4 C 10,0 C 8,9 C 96 % 1001,2 hPa 0,0 l/m 0 min 0 min 0 W/m 0,0 km/h (0 Bft) 97,87 %
26.10.2020 01:52 10,4 C 9,4 C 8,9 C 96 % 1001,2 hPa 0,0 l/m 0 min 2 min 0 W/m 0,0 km/h (0 Bft) 95,65 %
26.10.2020 01:54 10,4 C 9,4 C 8,9 C 96 % 1001,2 hPa 0,0 l/m 0 min 0 min 0 W/m 0,0 km/h (0 Bft) 95,74 %
26.10.2020 01:56 10,4 C 9,4 C 8,9 C 96 % 1001,0 hPa 0,0 l/m 0 min 0 min 0 W/m 0,0 km/h (0 Bft) 97,83 %
26.10.2020 01:58 10,4 C 9,4 C 8,9 C 96 % 1001,0 hPa 0,0 l/m 0 min 0 min 0 W/m 0,0 km/h (0 Bft) 97,87 %
26.10.2020 02:00 10,4 C 9,4 C 8,9 C 96 % 1001,0 hPa 0,0 l/m 0 min 0 min 0 W/m 0,0 km/h (0 Bft) 97,87 %
26.10.2020 02:02 10,4 C 9,4 C 8,9 C 96 % 1000,9 hPa 0,0 l/m 0 min 0 min 0 W/m 0,0 km/h (0 Bft) 97,83 %
26.10.2020 02:04 10,4 C 9,4 C 8,9 C 96 % 1000,9 hPa 0,0 l/m 0 min 0 min 0 W/m 0,0 km/h (0 Bft) 95,74 %
26.10.2020 02:06 10,4 C 9,4 C 8,9 C 96 % 1000,9 hPa 0,0 l/m 0 min 0 min 0 W/m 0,0 km/h (0 Bft) 95,74 %
26.10.2020 02:08 10,4 C 9,4 C 8,9 C 96 % 1001,0 hPa 0,0 l/m 0 min 0 min 0 W/m 0,0 km/h (0 Bft) 97,87 %
26.10.2020 02:10 10,4 C 9,4 C 8,9 C 96 % 1001,0 hPa 0,0 l/m 0 min 0 min 0 W/m 0,0 km/h (0 Bft) 97,87 %
26.10.2020 02:12 10,4 C 9,4 C 8,9 C 96 % 1001,0 hPa 0,0 l/m 0 min 0 min 0 W/m 0,0 km/h (0 Bft) 97,87 %
26.10.2020 02:14 10,4 C 9,4 C 8,9 C 96 % 1000,9 hPa 0,0 l/m 0 min 0 min 0 W/m 0,0 km/h (0 Bft) 95,65 %
26.10.2020 02:16 10,4 C 9,4 C 8,9 C 96 % 1000,8 hPa 0,0 l/m 0 min 0 min 0 W/m 0,0 km/h (0 Bft) 97,87 %
26.10.2020 02:18 10,4 C 9,4 C 8,9 C 96 % 1000,8 hPa 0,0 l/m 0 min 0 min 0 W/m 0,0 km/h (0 Bft) 95,74 %
26.10.2020 02:20 10,4 C 9,4 C 8,9 C 96 % 1001,0 hPa 0,0 l/m 0 min 0 min 0 W/m 0,0 km/h (0 Bft) 97,87 %
26.10.2020 02:22 10,4 C 9,4 C 8,9 C 96 % 1001,1 hPa 0,0 l/m 0 min 0 min 0 W/m 0,0 km/h (0 Bft) 97,87 %
26.10.2020 02:24 10,4 C 9,4 C 8,9 C 96 % 1001,3 hPa 0,0 l/m 0 min 0 min 0 W/m 0,0 km/h (0 Bft) 97,87 %
26.10.2020 02:26 10,4 C 9,4 C 8,9 C 96 % 1001,3 hPa 0,0 l/m 0 min 0 min 0 W/m 0,0 km/h (0 Bft) 100,00 %
26.10.2020 02:28 10,4 C 9,4 C 8,9 C 96 % 1001,2 hPa 0,0 l/m 0 min 0 min 0 W/m 0,0 km/h (0 Bft) 100,00 %
26.10.2020 02:30 10,4 C 9,4 C 8,9 C 96 % 1001,2 hPa 0,0 l/m 0 min 0 min 0 W/m 0,0 km/h (0 Bft) 100,00 %
26.10.2020 02:32 10,4 C 9,4 C 8,9 C 96 % 1001,2 hPa 0,0 l/m 0 min 0 min 0 W/m 0,0 km/h (0 Bft) 100,00 %
26.10.2020 02:34 10,3 C 9,4 C 8,9 C 96 % 1001,3 hPa 0,0 l/m 0 min 0 min 0 W/m 0,0 km/h (0 Bft) 97,87 %
26.10.2020 02:36 10,3 C 9,4 C 8,9 C 96 % 1001,3 hPa 0,0 l/m 0 min 0 min 0 W/m 0,0 km/h (0 Bft) 100,00 %
26.10.2020 02:38 10,3 C 9,4 C 8,9 C 96 % 1001,3 hPa 0,0 l/m 0 min 0 min 0 W/m 0,0 km/h (0 Bft) 100,00 %
26.10.2020 02:40 10,3 C 9,4 C 8,9 C 96 % 1001,2 hPa 0,0 l/m 0 min 0 min 0 W/m 0,0 km/h (0 Bft) 100,00 %
26.10.2020 02:42 10,3 C 10,0 C 8,9 C 96 % 1001,3 hPa 0,0 l/m 0 min 0 min 0 W/m 0,0 km/h (0 Bft) 100,00 %
26.10.2020 02:44 10,3 C 10,0 C 8,9 C 96 % 1001,4 hPa 0,0 l/m 0 min 0 min 0 W/m 0,0 km/h (0 Bft) 100,00 %
26.10.2020 02:46 10,3 C 10,0 C 8,9 C 96 % 1001,5 hPa 0,0 l/m 0 min 0 min 0 W/m 0,0 km/h (0 Bft) 100,00 %
26.10.2020 02:48 10,3 C 10,0 C 8,9 C 96 % 1001,6 hPa 0,0 l/m 0 min 0 min 0 W/m 0,0 km/h (0 Bft) 100,00 %
26.10.2020 02:50 10,3 C 10,0 C 8,9 C 96 % 1001,6 hPa 0,0 l/m 0 min 0 min 0 W/m 0,0 km/h (0 Bft) 100,00 %
26.10.2020 02:52 10,3 C 10,0 C 8,9 C 96 % 1001,6 hPa 0,0 l/m 0 min 0 min 0 W/m 0,0 km/h (0 Bft) 100,00 %
26.10.2020 02:54 10,3 C 10,0 C 8,9 C 96 % 1001,5 hPa 0,0 l/m 0 min 0 min 0 W/m 0,0 km/h (0 Bft) 100,00 %
26.10.2020 02:56 10,3 C 10,0 C 8,9 C 96 % 1001,5 hPa 0,0 l/m 0 min 2 min 0 W/m 0,0 km/h (0 Bft) 100,00 %
26.10.2020 02:58 10,3 C 10,0 C 8,9 C 96 % 1001,5 hPa 0,0 l/m 0 min 0 min 0 W/m 0,0 km/h (0 Bft) 100,00 %
26.10.2020 03:00 10,3 C 10,0 C 8,9 C 96 % 1001,5 hPa 0,0 l/m 0 min 0 min 0 W/m 0,0 km/h (0 Bft) 100,00 %
26.10.2020 03:02 10,3 C 10,0 C 8,9 C 96 % 1001,4 hPa 0,0 l/m 0 min 0 min 0 W/m 0,0 km/h (0 Bft) 97,92 %
26.10.2020 03:04 10,3 C 10,0 C 8,9 C 96 % 1001,5 hPa 0,0 l/m 0 min 0 min 0 W/m 0,0 km/h (0 Bft) 100,00 %
26.10.2020 03:06 10,3 C 10,0 C 8,9 C 96 % 1001,5 hPa 0,0 l/m 0 min 0 min 0 W/m 0,0 km/h (0 Bft) 100,00 %
26.10.2020 03:08 10,3 C 10,0 C 8,9 C 96 % 1001,5 hPa 0,0 l/m 0 min 0 min 0 W/m 0,0 km/h (0 Bft) 100,00 %
26.10.2020 03:10 10,3 C 10,0 C 8,9 C 96 % 1001,4 hPa 0,0 l/m 0 min 0 min 0 W/m 3,2 km/h (1 Bft) 97,87 %
26.10.2020 03:12 10,4 C 10,0 C 8,9 C 96 % 1001,4 hPa 0,0 l/m 0 min 0 min 0 W/m 0,0 km/h (0 Bft) 97,83 %
26.10.2020 03:14 10,3 C 10,0 C 8,9 C 96 % 1001,3 hPa 0,0 l/m 0 min 0 min 0 W/m 0,0 km/h (0 Bft) 100,00 %
26.10.2020 03:16 10,4 C 10,0 C 8,9 C 96 % 1001,3 hPa 0,0 l/m 0 min 0 min 0 W/m 0,0 km/h (0 Bft) 100,00 %
26.10.2020 03:18 10,3 C 10,0 C 8,9 C 96 % 1001,3 hPa 0,0 l/m 0 min 0 min 0 W/m 0,0 km/h (0 Bft) 97,87 %
26.10.2020 03:20 10,4 C 10,0 C 8,9 C 96 % 1001,4 hPa 0,0 l/m 0 min 0 min 0 W/m 0,0 km/h (0 Bft) 97,87 %
26.10.2020 03:22 10,4 C 10,0 C 8,9 C 96 % 1001,4 hPa 0,0 l/m 0 min 0 min 0 W/m 3,2 km/h (1 Bft) 100,00 %
26.10.2020 03:24 10,4 C 10,0 C 8,9 C 96 % 1001,4 hPa 0,0 l/m 0 min 0 min 0 W/m 0,0 km/h (0 Bft) 100,00 %
26.10.2020 03:26 10,4 C 10,0 C 8,9 C 96 % 1001,4 hPa 0,0 l/m 0 min 0 min 0 W/m 0,0 km/h (0 Bft) 97,87 %
26.10.2020 03:28 10,4 C 10,0 C 8,9 C 95 % 1001,4 hPa 0,0 l/m 0 min 0 min 0 W/m 0,0 km/h (0 Bft) 97,87 %
26.10.2020 03:30 10,4 C 10,0 C 8,9 C 95 % 1001,5 hPa 0,0 l/m 0 min 0 min 0 W/m 0,0 km/h (0 Bft) 93,62 %
26.10.2020 03:32 10,4 C 10,0 C 8,9 C 95 % 1001,5 hPa 0,0 l/m 0 min 0 min 0 W/m 6,4 km/h (2 Bft) 97,87 %
26.10.2020 03:34 10,4 C 10,0 C 8,9 C 95 % 1001,4 hPa 0,0 l/m 0 min 0 min 0 W/m 0,0 km/h (0 Bft) 97,83 %
26.10.2020 03:36 10,4 C 10,0 C 8,9 C 96 % 1001,4 hPa 0,0 l/m 0 min 0 min 0 W/m 12,9 km/h (3 Bft) 97,87 %
26.10.2020 03:38 10,3 C 10,0 C 8,9 C 95 % 1001,4 hPa 0,0 l/m 0 min 0 min 0 W/m 16,1 km/h (3 Bft) 97,92 %
26.10.2020 03:40 10,4 C 10,0 C 8,9 C 95 % 1001,3 hPa 0,0 l/m 0 min 0 min 0 W/m 12,9 km/h (3 Bft) 97,87 %
26.10.2020 03:42 10,4 C 10,0 C 8,9 C 95 % 1001,4 hPa 0,0 l/m 0 min 0 min 0 W/m 0,0 km/h (0 Bft) 97,87 %
26.10.2020 03:44 10,3 C 10,0 C 8,9 C 95 % 1001,4 hPa 0,0 l/m 0 min 0 min 0 W/m 19,3 km/h (3 Bft) 97,87 %
26.10.2020 03:46 10,4 C 10,0 C 8,9 C 95 % 1001,4 hPa 0,0 l/m 0 min 0 min 0 W/m 16,1 km/h (3 Bft) 95,65 %
26.10.2020 03:48 10,4 C 10,0 C 8,9 C 95 % 1001,5 hPa 0,0 l/m 0 min 0 min 0 W/m 12,9 km/h (3 Bft) 97,87 %
26.10.2020 03:50 10,4 C 10,0 C 8,9 C 95 % 1001,5 hPa 0,0 l/m 0 min 0 min 0 W/m 6,4 km/h (2 Bft) 97,87 %
26.10.2020 03:52 10,4 C 10,6 C 8,9 C 95 % 1001,6 hPa 0,0 l/m 0 min 0 min 0 W/m 0,0 km/h (0 Bft) 97,87 %
26.10.2020 03:54 10,4 C 10,6 C 8,9 C 95 % 1001,7 hPa 0,0 l/m 0 min 0 min 0 W/m 0,0 km/h (0 Bft) 97,87 %
26.10.2020 03:56 10,4 C 10,6 C 8,9 C 94 % 1001,7 hPa 0,0 l/m 0 min 0 min 0 W/m 0,0 km/h (0 Bft) 97,87 %
26.10.2020 03:58 10,4 C 10,0 C 8,9 C 94 % 1001,7 hPa 0,0 l/m 0 min 0 min 0 W/m 0,0 km/h (0 Bft) 95,65 %
26.10.2020 04:00 10,5 C 10,0 C 8,9 C 94 % 1001,6 hPa 0,0 l/m 0 min 0 min 0 W/m 0,0 km/h (0 Bft) 97,73 %
26.10.2020 04:02 10,5 C 10,0 C 8,9 C 94 % 1001,5 hPa 0,0 l/m 0 min 0 min 0 W/m 19,3 km/h (3 Bft) 100,00 %
26.10.2020 04:04 10,5 C 10,0 C 8,9 C 94 % 1001,5 hPa 0,0 l/m 0 min 0 min 0 W/m 12,9 km/h (3 Bft) 95,74 %
26.10.2020 04:06 10,5 C 10,0 C 8,9 C 94 % 1001,6 hPa 0,0 l/m 0 min 0 min 0 W/m 6,4 km/h (2 Bft) 95,74 %
26.10.2020 04:08 10,5 C 10,0 C 8,9 C 94 % 1001,5 hPa 0,0 l/m 0 min 0 min 0 W/m 0,0 km/h (0 Bft) 98,28 %
26.10.2020 04:10 10,5 C 10,0 C 8,9 C 94 % 1001,5 hPa 0,0 l/m 0 min 0 min 0 W/m 3,2 km/h (1 Bft) 97,14 %
26.10.2020 04:12 10,5 C 10,0 C 8,9 C 94 % 1001,5 hPa 0,0 l/m 0 min 0 min 0 W/m 3,2 km/h (1 Bft) 95,74 %
26.10.2020 04:14 10,5 C 10,0 C 8,9 C 94 % 1001,5 hPa 0,0 l/m 0 min 0 min 0 W/m 3,2 km/h (1 Bft) 97,87 %
26.10.2020 04:16 10,5 C 10,0 C 8,9 C 94 % 1001,5 hPa 0,0 l/m 0 min 0 min 0 W/m 0,0 km/h (0 Bft) 95,74 %
26.10.2020 04:18 10,5 C 10,0 C 8,9 C 93 % 1001,5 hPa 0,0 l/m 0 min 0 min 0 W/m 0,0 km/h (0 Bft) 93,62 %
26.10.2020 04:20 10,5 C 10,0 C 8,9 C 93 % 1001,5 hPa 0,0 l/m 0 min 0 min 0 W/m 0,0 km/h (0 Bft) 97,87 %
26.10.2020 04:22 10,6 C 10,0 C 8,9 C 93 % 1001,6 hPa 0,0 l/m 0 min 0 min 0 W/m 0,0 km/h (0 Bft) 93,48 %
26.10.2020 04:24 10,6 C 10,0 C 8,9 C 93 % 1001,6 hPa 0,0 l/m 0 min 0 min 0 W/m 0,0 km/h (0 Bft) 93,62 %
26.10.2020 04:26 10,6 C 10,0 C 8,9 C 93 % 1001,5 hPa 0,0 l/m 0 min 0 min 0 W/m 0,0 km/h (0 Bft) 97,87 %
26.10.2020 04:28 10,6 C 10,0 C 8,9 C 93 % 1001,4 hPa 0,0 l/m 0 min 0 min 0 W/m 16,1 km/h (3 Bft) 97,87 %
26.10.2020 04:30 10,6 C 10,0 C 8,9 C 93 % 1001,4 hPa 0,0 l/m 0 min 0 min 0 W/m 6,4 km/h (2 Bft) 97,87 %
26.10.2020 04:32 10,6 C 10,0 C 8,9 C 93 % 1001,4 hPa 0,0 l/m 0 min 0 min 0 W/m 16,1 km/h (3 Bft) 96,55 %
26.10.2020 04:34 10,6 C 10,0 C 8,9 C 93 % 1001,3 hPa 0,0 l/m 0 min 0 min 0 W/m 0,0 km/h (0 Bft) 97,87 %
26.10.2020 04:36 10,6 C 10,0 C 8,9 C 93 % 1001,3 hPa 0,0 l/m 0 min 0 min 0 W/m 0,0 km/h (0 Bft) 97,14 %
26.10.2020 04:38 10,6 C 10,0 C 8,9 C 93 % 1001,3 hPa 0,0 l/m 0 min 0 min 0 W/m 9,7 km/h (2 Bft) 98,31 %
26.10.2020 04:40 10,6 C 10,0 C 8,9 C 93 % 1001,3 hPa 0,0 l/m 0 min 0 min 0 W/m 6,4 km/h (2 Bft) 97,14 %
26.10.2020 04:42 10,6 C 10,0 C 8,9 C 93 % 1001,3 hPa 0,0 l/m 0 min 0 min 0 W/m 0,0 km/h (0 Bft) 95,74 %
26.10.2020 04:44 10,6 C 10,0 C 8,9 C 93 % 1001,2 hPa 0,0 l/m 0 min 0 min 0 W/m 0,0 km/h (0 Bft) 97,87 %
26.10.2020 04:46 10,6 C 9,4 C 8,9 C 93 % 1001,2 hPa 0,0 l/m 0 min 0 min 0 W/m 0,0 km/h (0 Bft) 97,83 %
26.10.2020 04:48 10,6 C 9,4 C 8,9 C 93 % 1001,1 hPa 0,0 l/m 0 min 0 min 0 W/m 0,0 km/h (0 Bft) 98,31 %
26.10.2020 04:50 10,5 C 9,4 C 8,9 C 93 % 1001,1 hPa 0,0 l/m 0 min 0 min 0 W/m 0,0 km/h (0 Bft) 97,14 %
26.10.2020 04:52 10,5 C 9,4 C 8,9 C 92 % 1001,2 hPa 0,0 l/m 0 min 0 min 0 W/m 0,0 km/h (0 Bft) 98,31 %
26.10.2020 04:54 10,5 C 9,4 C 8,9 C 92 % 1001,1 hPa 0,0 l/m 0 min 0 min 0 W/m 0,0 km/h (0 Bft) 97,14 %
26.10.2020 04:56 10,5 C 9,4 C 8,4 C 92 % 1001,0 hPa 0,0 l/m 0 min 0 min 0 W/m 0,0 km/h (0 Bft) 97,83 %
26.10.2020 04:58 10,5 C 9,4 C 8,4 C 92 % 1001,0 hPa 0,0 l/m 0 min 0 min 0 W/m 0,0 km/h (0 Bft) 97,87 %
26.10.2020 05:00 10,5 C 9,4 C 8,4 C 92 % 1001,0 hPa 0,0 l/m 0 min 0 min 0 W/m 0,0 km/h (0 Bft) 97,87 %
26.10.2020 05:02 10,5 C 9,4 C 8,4 C 92 % 1000,9 hPa 0,0 l/m 0 min 0 min 0 W/m 0,0 km/h (0 Bft) 100,00 %
26.10.2020 05:04 10,5 C 9,4 C 8,4 C 92 % 1000,8 hPa 0,0 l/m 0 min 0 min 0 W/m 0,0 km/h (0 Bft) 100,00 %
26.10.2020 05:06 10,4 C 9,4 C 8,4 C 92 % 1000,8 hPa 0,0 l/m 0 min 0 min 0 W/m 0,0 km/h (0 Bft) 100,00 %
26.10.2020 05:08 10,4 C 9,4 C 8,4 C 92 % 1000,9 hPa 0,0 l/m 0 min 0 min 0 W/m 0,0 km/h (0 Bft) 100,00 %
26.10.2020 05:10 10,4 C 9,4 C 8,4 C 92 % 1000,9 hPa 0,0 l/m 0 min 0 min 0 W/m 0,0 km/h (0 Bft) 100,00 %
26.10.2020 05:12 10,4 C 9,4 C 8,4 C 92 % 1000,8 hPa 0,0 l/m 0 min 0 min 0 W/m 0,0 km/h (0 Bft) 97,87 %
26.10.2020 05:14 10,4 C 9,4 C 8,4 C 92 % 1000,9 hPa 0,0 l/m 0 min 0 min 0 W/m 0,0 km/h (0 Bft) 100,00 %
26.10.2020 05:16 10,3 C 9,4 C 8,4 C 92 % 1001,0 hPa 0,0 l/m 0 min 0 min 0 W/m 0,0 km/h (0 Bft) 100,00 %
26.10.2020 05:18 10,3 C 8,9 C 8,4 C 92 % 1001,1 hPa 0,0 l/m 0 min 0 min 0 W/m 0,0 km/h (0 Bft) 97,87 %
26.10.2020 05:20 10,3 C 8,9 C 8,4 C 92 % 1001,3 hPa 0,0 l/m 0 min 0 min 0 W/m 0,0 km/h (0 Bft) 100,00 %
26.10.2020 05:22 10,3 C 8,9 C 8,4 C 92 % 1001,4 hPa 0,0 l/m 0 min 0 min 0 W/m 0,0 km/h (0 Bft) 100,00 %
26.10.2020 05:24 10,3 C 8,9 C 8,4 C 92 % 1001,5 hPa 0,0 l/m 0 min 0 min 0 W/m 0,0 km/h (0 Bft) 100,00 %
26.10.2020 05:26 10,2 C 8,9 C 8,4 C 92 % 1001,6 hPa 0,0 l/m 0 min 0 min 0 W/m 0,0 km/h (0 Bft) 100,00 %
26.10.2020 05:28 10,2 C 8,9 C 8,4 C 92 % 1001,7 hPa 0,0 l/m 0 min 0 min 0 W/m 0,0 km/h (0 Bft) 97,87 %
26.10.2020 05:30 10,1 C 8,9 C 8,4 C 92 % 1001,7 hPa 0,0 l/m 0 min 0 min 0 W/m 0,0 km/h (0 Bft) 100,00 %
26.10.2020 05:32 10,1 C 8,9 C 8,4 C 92 % 1001,5 hPa 0,0 l/m 0 min 0 min 0 W/m 0,0 km/h (0 Bft) 100,00 %
26.10.2020 05:34 10,1 C 8,9 C 8,4 C 93 % 1001,4 hPa 0,0 l/m 0 min 0 min 0 W/m 0,0 km/h (0 Bft) 100,00 %
26.10.2020 05:36 10,1 C 8,9 C 8,4 C 92 % 1001,2 hPa 0,0 l/m 0 min 0 min 0 W/m 0,0 km/h (0 Bft) 95,74 %
26.10.2020 05:38 10,1 C 8,9 C 8,4 C 92 % 1001,2 hPa 0,0 l/m 0 min 0 min 0 W/m 0,0 km/h (0 Bft) 97,87 %
26.10.2020 05:40 10,1 C 8,9 C 8,4 C 93 % 1001,2 hPa 0,0 l/m 0 min 0 min 0 W/m 0,0 km/h (0 Bft) 97,87 %
26.10.2020 05:42 10,0 C 8,9 C 8,4 C 93 % 1001,1 hPa 0,0 l/m 0 min 0 min 0 W/m 0,0 km/h (0 Bft) 97,87 %
26.10.2020 05:44 10,0 C 8,9 C 8,4 C 93 % 1001,0 hPa 0,0 l/m 0 min 0 min 0 W/m 0,0 km/h (0 Bft) 97,87 %
26.10.2020 05:46 10,0 C 8,9 C 8,4 C 93 % 1001,1 hPa 0,0 l/m 0 min 0 min 0 W/m 0,0 km/h (0 Bft) 97,83 %
26.10.2020 05:48 10,0 C 8,9 C 8,4 C 93 % 1001,1 hPa 0,0 l/m 0 min 0 min 0 W/m 0,0 km/h (0 Bft) 97,87 %
26.10.2020 05:50 10,0 C 8,9 C 8,4 C 93 % 1001,0 hPa 0,0 l/m 0 min 0 min 0 W/m 0,0 km/h (0 Bft) 95,74 %
26.10.2020 05:52 10,0 C 8,9 C 8,4 C 93 % 1001,0 hPa 0,0 l/m 0 min 0 min 0 W/m 0,0 km/h (0 Bft) 95,74 %
26.10.2020 05:54 9,9 C 8,9 C 8,4 C 93 % 1001,1 hPa 0,0 l/m 0 min 0 min 0 W/m 0,0 km/h (0 Bft) 97,87 %
26.10.2020 05:56 9,9 C 8,9 C 8,4 C 93 % 1001,1 hPa 0,0 l/m 0 min 0 min 0 W/m 0,0 km/h (0 Bft) 97,83 %
26.10.2020 05:58 9,9 C 8,9 C 8,4 C 93 % 1001,0 hPa 0,0 l/m 0 min 0 min 0 W/m 0,0 km/h (0 Bft) 95,74 %
26.10.2020 06:00 9,9 C 8,9 C 8,4 C 93 % 1000,9 hPa 0,0 l/m 0 min 0 min 0 W/m 0,0 km/h (0 Bft) 97,87 %
26.10.2020 06:02 9,9 C 8,9 C 8,4 C 93 % 1000,9 hPa 0,0 l/m 0 min 0 min 0 W/m 0,0 km/h (0 Bft) 97,87 %
26.10.2020 06:04 9,9 C 8,9 C 8,4 C 93 % 1001,0 hPa 0,0 l/m 0 min 0 min 0 W/m 0,0 km/h (0 Bft) 97,87 %
26.10.2020 06:07 9,8 C 8,9 C 8,4 C 93 % 1001,0 hPa 0,0 l/m 0 min 0 min 0 W/m 0,0 km/h (0 Bft) 98,57 %
26.10.2020 06:08 9,8 C 8,9 C 8,4 C 93 % 1001,0 hPa 0,0 l/m 0 min 0 min 0 W/m 0,0 km/h (0 Bft) 95,65 %
26.10.2020 06:10 9,8 C 8,9 C 8,4 C 93 % 1000,9 hPa 0,0 l/m 0 min 0 min 0 W/m 0,0 km/h (0 Bft) 95,74 %
26.10.2020 06:12 9,8 C 8,9 C 8,4 C 93 % 1000,8 hPa 0,0 l/m 0 min 0 min 0 W/m 0,0 km/h (0 Bft) 97,87 %
26.10.2020 06:14 9,8 C 8,9 C 8,4 C 93 % 1000,6 hPa 0,0 l/m 0 min 0 min 0 W/m 0,0 km/h (0 Bft) 95,74 %
26.10.2020 06:16 9,8 C 8,9 C 8,4 C 93 % 1000,7 hPa 0,0 l/m 0 min 0 min 0 W/m 0,0 km/h (0 Bft) 95,74 %
26.10.2020 06:18 9,7 C 8,3 C 8,4 C 93 % 1000,8 hPa 0,0 l/m 0 min 0 min 0 W/m 0,0 km/h (0 Bft) 95,74 %
26.10.2020 06:20 9,7 C 8,3 C 8,4 C 93 % 1000,8 hPa 0,0 l/m 0 min 0 min 0 W/m 0,0 km/h (0 Bft) 95,65 %
26.10.2020 06:22 9,7 C 8,3 C 7,8 C 94 % 1000,8 hPa 0,0 l/m 0 min 0 min 0 W/m 0,0 km/h (0 Bft) 93,62 %
26.10.2020 06:24 9,7 C 8,3 C 7,8 C 94 % 1000,8 hPa 0,0 l/m 0 min 0 min 0 W/m 0,0 km/h (0 Bft) 95,74 %
26.10.2020 06:26 9,6 C 8,3 C 7,8 C 94 % 1000,9 hPa 0,0 l/m 0 min 0 min 0 W/m 0,0 km/h (0 Bft) 95,74 %
26.10.2020 06:28 9,6 C 8,3 C 7,8 C 94 % 1000,9 hPa 0,0 l/m 0 min 0 min 0 W/m 0,0 km/h (0 Bft) 95,74 %
26.10.2020 06:30 9,6 C 8,3 C 7,8 C 94 % 1000,8 hPa 0,0 l/m 0 min 0 min 0 W/m 0,0 km/h (0 Bft) 95,74 %
26.10.2020 06:32 9,6 C 8,3 C 7,8 C 94 % 1000,8 hPa 0,0 l/m 0 min 0 min 0 W/m 0,0 km/h (0 Bft) 95,65 %
26.10.2020 06:34 9,6 C 8,3 C 7,8 C 94 % 1000,8 hPa 0,0 l/m 0 min 0 min 0 W/m 0,0 km/h (0 Bft) 95,74 %
26.10.2020 06:36 9,5 C 8,3 C 7,8 C 94 % 1000,9 hPa 0,0 l/m 0 min 0 min 0 W/m 0,0 km/h (0 Bft) 91,49 %
26.10.2020 06:38 9,5 C 8,3 C 7,8 C 93 % 1000,9 hPa 0,0 l/m 0 min 0 min 0 W/m 0,0 km/h (0 Bft) 91,49 %
26.10.2020 06:40 9,5 C 8,3 C 7,8 C 93 % 1000,9 hPa 0,0 l/m 0 min 0 min 0 W/m 0,0 km/h (0 Bft) 89,36 %
26.10.2020 06:42 9,5 C 8,3 C 7,8 C 93 % 1000,9 hPa 0,0 l/m 0 min 0 min 0 W/m 0,0 km/h (0 Bft) 95,74 %
26.10.2020 06:44 9,5 C 8,3 C 7,8 C 93 % 1001,0 hPa 0,0 l/m 0 min 0 min 0 W/m 0,0 km/h (0 Bft) 95,65 %
26.10.2020 06:46 9,4 C 8,3 C 7,8 C 93 % 1001,1 hPa 0,0 l/m 0 min 0 min 0 W/m 0,0 km/h (0 Bft) 93,62 %
26.10.2020 06:48 9,4 C 8,3 C 7,8 C 94 % 1001,3 hPa 0,0 l/m 0 min 0 min 0 W/m 0,0 km/h (0 Bft) 93,62 %
26.10.2020 06:50 9,4 C 8,3 C 7,8 C 94 % 1001,3 hPa 0,0 l/m 0 min 0 min 0 W/m 0,0 km/h (0 Bft) 93,62 %
26.10.2020 06:52 9,4 C 8,3 C 7,8 C 94 % 1001,3 hPa 0,0 l/m 0 min 0 min 0 W/m 0,0 km/h (0 Bft) 93,62 %
26.10.2020 06:54 9,4 C 8,3 C 7,8 C 94 % 1001,3 hPa 0,0 l/m 0 min 0 min 0 W/m 0,0 km/h (0 Bft) 93,48 %
26.10.2020 06:56 9,4 C 8,3 C 7,8 C 94 % 1001,5 hPa 0,0 l/m 0 min 0 min 0 W/m 0,0 km/h (0 Bft) 93,62 %
26.10.2020 06:58 9,3 C 8,3 C 7,8 C 94 % 1001,6 hPa 0,0 l/m 0 min 0 min 0 W/m 0,0 km/h (0 Bft) 91,49 %
26.10.2020 07:00 9,3 C 8,3 C 7,8 C 94 % 1001,6 hPa 0,0 l/m 0 min 0 min 0 W/m 0,0 km/h (0 Bft) 95,74 %
26.10.2020 07:02 9,3 C 8,3 C 7,8 C 94 % 1001,6 hPa 0,0 l/m 0 min 0 min 0 W/m 0,0 km/h (0 Bft) 93,62 %
26.10.2020 07:04 9,3 C 8,3 C 7,8 C 94 % 1001,6 hPa 0,0 l/m 0 min 0 min 0 W/m 0,0 km/h (0 Bft) 95,65 %
26.10.2020 07:06 9,3 C 8,3 C 7,8 C 94 % 1001,6 hPa 0,0 l/m 0 min 0 min 0 W/m 0,0 km/h (0 Bft) 93,62 %
26.10.2020 07:08 9,3 C 8,3 C 7,8 C 94 % 1001,5 hPa 0,0 l/m 0 min 0 min 0 W/m 0,0 km/h (0 Bft) 93,62 %
26.10.2020 07:10 9,3 C 8,3 C 7,8 C 94 % 1001,4 hPa 0,0 l/m 0 min 0 min 0 W/m 0,0 km/h (0 Bft) 95,74 %
26.10.2020 07:12 9,2 C 8,3 C 7,8 C 94 % 1001,4 hPa 0,0 l/m 0 min 0 min 0 W/m 0,0 km/h (0 Bft) 93,62 %
26.10.2020 07:14 9,2 C 8,3 C 7,8 C 94 % 1001,3 hPa 0,0 l/m 0 min 0 min 0 W/m 0,0 km/h (0 Bft) 95,74 %
26.10.2020 07:16 9,2 C 8,3 C 7,8 C 94 % 1001,3 hPa 0,0 l/m 0 min 0 min 0 W/m 0,0 km/h (0 Bft) 97,87 %
26.10.2020 07:18 9,2 C 8,3 C 7,8 C 94 % 1001,3 hPa 0,0 l/m 0 min 0 min 0 W/m 0,0 km/h (0 Bft) 95,65 %
26.10.2020 07:20 9,1 C 8,3 C 7,8 C 94 % 1001,3 hPa 0,0 l/m 0 min 0 min 0 W/m 0,0 km/h (0 Bft) 97,87 %
26.10.2020 07:22 9,1 C 8,3 C 7,8 C 94 % 1001,3 hPa 0,0 l/m 0 min 0 min 0 W/m 0,0 km/h (0 Bft) 97,87 %
26.10.2020 07:24 9,1 C 8,3 C 7,8 C 94 % 1001,3 hPa 0,0 l/m 0 min 0 min 0 W/m 0,0 km/h (0 Bft) 93,62 %
26.10.2020 07:26 9,1 C 8,3 C 7,8 C 94 % 1001,3 hPa 0,0 l/m 0 min 0 min 0 W/m 0,0 km/h (0 Bft) 97,87 %
26.10.2020 07:28 9,1 C 8,3 C 7,8 C 94 % 1001,4 hPa 0,0 l/m 0 min 0 min 0 W/m 0,0 km/h (0 Bft) 97,87 %
26.10.2020 07:30 9,1 C 8,3 C 7,8 C 94 % 1001,5 hPa 0,0 l/m 0 min 0 min 0 W/m 0,0 km/h (0 Bft) 100,00 %
26.10.2020 07:32 9,1 C 8,3 C 7,8 C 95 % 1001,6 hPa 0,0 l/m 0 min 0 min 0 W/m 0,0 km/h (0 Bft) 98,15 %
26.10.2020 07:34 9,1 C 8,3 C 7,8 C 95 % 1001,7 hPa 0,0 l/m 0 min 0 min 1 W/m 0,0 km/h (0 Bft) 100,00 %
26.10.2020 07:36 9,1 C 8,3 C 7,8 C 95 % 1001,8 hPa 0,0 l/m 0 min 0 min 5 W/m 0,0 km/h (0 Bft) 100,00 %
26.10.2020 07:38 9,1 C 8,3 C 7,8 C 95 % 1001,8 hPa 0,0 l/m 0 min 0 min 6 W/m 0,0 km/h (0 Bft) 97,87 %
26.10.2020 07:40 9,0 C 8,3 C 7,8 C 95 % 1001,9 hPa 0,0 l/m 0 min 0 min 7 W/m 0,0 km/h (0 Bft) 97,87 %
26.10.2020 07:42 9,0 C 8,3 C 7,8 C 95 % 1001,9 hPa 0,0 l/m 0 min 0 min 7 W/m 0,0 km/h (0 Bft) 97,87 %
26.10.2020 07:44 9,0 C 8,3 C 7,8 C 95 % 1001,9 hPa 0,0 l/m 0 min 0 min 8 W/m 0,0 km/h (0 Bft) 100,00 %
26.10.2020 07:46 9,0 C 8,3 C 7,8 C 95 % 1001,9 hPa 0,0 l/m 0 min 0 min 10 W/m 0,0 km/h (0 Bft) 97,87 %
26.10.2020 07:48 9,0 C 8,3 C 7,8 C 95 % 1001,9 hPa 0,0 l/m 0 min 0 min 11 W/m 0,0 km/h (0 Bft) 97,83 %
26.10.2020 07:50 9,0 C 8,3 C 7,8 C 95 % 1001,8 hPa 0,0 l/m 0 min 0 min 12 W/m 0,0 km/h (0 Bft) 100,00 %
26.10.2020 07:52 9,0 C 8,3 C 7,8 C 95 % 1001,8 hPa 0,0 l/m 0 min 0 min 14 W/m 0,0 km/h (0 Bft) 100,00 %
26.10.2020 07:54 9,0 C 8,9 C 7,8 C 95 % 1001,9 hPa 0,0 l/m 0 min 0 min 17 W/m 0,0 km/h (0 Bft) 100,00 %
26.10.2020 07:56 9,0 C 8,9 C 7,8 C 95 % 1002,0 hPa 0,0 l/m 0 min 0 min 18 W/m 0,0 km/h (0 Bft) 100,00 %
26.10.2020 07:58 9,0 C 8,9 C 8,4 C 95 % 1001,9 hPa 0,0 l/m 0 min 0 min 19 W/m 0,0 km/h (0 Bft) 100,00 %
26.10.2020 08:00 9,1 C 8,9 C 8,4 C 95 % 1001,9 hPa 0,0 l/m 0 min 0 min 20 W/m 0,0 km/h (0 Bft) 100,00 %
26.10.2020 08:02 9,1 C 8,9 C 8,4 C 95 % 1002,0 hPa 0,0 l/m 0 min 0 min 21 W/m 0,0 km/h (0 Bft) 100,00 %
26.10.2020 08:04 9,1 C 8,9 C 8,4 C 95 % 1001,9 hPa 0,0 l/m 0 min 0 min 21 W/m 0,0 km/h (0 Bft) 100,00 %
26.10.2020 08:06 9,1 C 8,9 C 8,4 C 95 % 1001,8 hPa 0,0 l/m 0 min 0 min 21 W/m 0,0 km/h (0 Bft) 100,00 %
26.10.2020 08:08 9,1 C 8,9 C 8,4 C 95 % 1001,7 hPa 0,0 l/m 0 min 0 min 23 W/m 16,1 km/h (3 Bft) 100,00 %
26.10.2020 08:10 9,1 C 8,9 C 8,4 C 95 % 1001,7 hPa 0,0 l/m 0 min 0 min 23 W/m 12,9 km/h (3 Bft) 100,00 %
26.10.2020 08:12 9,1 C 8,9 C 8,4 C 95 % 1001,7 hPa 0,0 l/m 0 min 0 min 25 W/m 0,0 km/h (0 Bft) 100,00 %
26.10.2020 08:14 9,1 C 8,9 C 8,4 C 95 % 1001,7 hPa 0,0 l/m 0 min 0 min 26 W/m 0,0 km/h (0 Bft) 100,00 %
26.10.2020 08:16 9,1 C 8,9 C 8,4 C 95 % 1001,7 hPa 0,0 l/m 0 min 0 min 28 W/m 0,0 km/h (0 Bft) 100,00 %
26.10.2020 08:18 9,1 C 8,9 C 8,4 C 95 % 1001,7 hPa 0,0 l/m 0 min 0 min 28 W/m 0,0 km/h (0 Bft) 100,00 %
26.10.2020 08:20 9,1 C 8,9 C 8,4 C 95 % 1001,7 hPa 0,0 l/m 0 min 0 min 30 W/m 0,0 km/h (0 Bft) 100,00 %
26.10.2020 08:22 9,1 C 8,9 C 8,4 C 95 % 1001,7 hPa 0,0 l/m 0 min 0 min 33 W/m 0,0 km/h (0 Bft) 100,00 %
26.10.2020 08:24 9,1 C 8,9 C 8,4 C 95 % 1001,7 hPa 0,0 l/m 0 min 0 min 35 W/m 0,0 km/h (0 Bft) 100,00 %
26.10.2020 08:26 9,1 C 8,9 C 8,4 C 95 % 1001,7 hPa 0,0 l/m 0 min 0 min 37 W/m 0,0 km/h (0 Bft) 100,00 %
26.10.2020 08:28 9,2 C 8,9 C 8,4 C 95 % 1001,6 hPa 0,0 l/m 0 min 0 min 39 W/m 0,0 km/h (0 Bft) 100,00 %
26.10.2020 08:30 9,2 C 9,4 C 8,4 C 95 % 1001,7 hPa 0,0 l/m 0 min 0 min 39 W/m 0,0 km/h (0 Bft) 100,00 %
26.10.2020 08:32 9,2 C 9,4 C 8,4 C 96 % 1001,7 hPa 0,0 l/m 0 min 0 min 43 W/m 16,1 km/h (3 Bft) 100,00 %
26.10.2020 08:34 9,3 C 9,4 C 8,4 C 96 % 1001,7 hPa 0,0 l/m 0 min 0 min 48 W/m 0,0 km/h (0 Bft) 100,00 %
26.10.2020 08:36 9,3 C 9,4 C 8,4 C 96 % 1001,8 hPa 0,0 l/m 0 min 0 min 54 W/m 16,1 km/h (3 Bft) 100,00 %
26.10.2020 08:38 9,3 C 9,4 C 8,4 C 96 % 1001,9 hPa 0,0 l/m 0 min 0 min 59 W/m 22,5 km/h (4 Bft) 97,87 %
26.10.2020 08:40 9,3 C 9,4 C 8,4 C 95 % 1001,9 hPa 0,0 l/m 0 min 0 min 63 W/m 19,3 km/h (3 Bft) 100,00 %
26.10.2020 08:42 9,3 C 9,4 C 8,4 C 95 % 1002,0 hPa 0,0 l/m 0 min 0 min 67 W/m 19,3 km/h (3 Bft) 100,00 %
26.10.2020 08:44 9,4 C 9,4 C 8,4 C 95 % 1002,1 hPa 0,0 l/m 0 min 0 min 69 W/m 22,5 km/h (4 Bft) 100,00 %
26.10.2020 08:46 9,4 C 9,4 C 8,4 C 95 % 1002,1 hPa 0,0 l/m 0 min 0 min 64 W/m 25,7 km/h (4 Bft) 100,00 %
26.10.2020 08:48 9,4 C 9,4 C 8,4 C 95 % 1002,2 hPa 0,0 l/m 0 min 0 min 60 W/m 25,7 km/h (4 Bft) 97,87 %
26.10.2020 08:50 9,4 C 9,4 C 8,9 C 95 % 1002,2 hPa 0,0 l/m 0 min 0 min 57 W/m 25,7 km/h (4 Bft) 100,00 %
26.10.2020 08:52 9,5 C 9,4 C 8,9 C 95 % 1002,1 hPa 0,0 l/m 0 min 0 min 61 W/m 22,5 km/h (4 Bft) 100,00 %
26.10.2020 08:54 9,5 C 9,4 C 8,9 C 95 % 1002,1 hPa 0,0 l/m 0 min 0 min 60 W/m 25,7 km/h (4 Bft) 91,49 %
26.10.2020 08:56 9,5 C 9,4 C 8,9 C 95 % 1002,3 hPa 0,0 l/m 0 min 0 min 54 W/m 25,7 km/h (4 Bft) 97,87 %
26.10.2020 08:58 9,5 C 9,4 C 8,9 C 95 % 1002,3 hPa 0,0 l/m 0 min 0 min 54 W/m 25,7 km/h (4 Bft) 100,00 %
26.10.2020 09:00 9,6 C 9,4 C 8,9 C 95 % 1002,3 hPa 0,0 l/m 0 min 0 min 57 W/m 16,1 km/h (3 Bft) 100,00 %
26.10.2020 09:02 9,6 C 9,4 C 8,9 C 94 % 1002,2 hPa 0,0 l/m 0 min 0 min 60 W/m 19,3 km/h (3 Bft) 95,65 %
26.10.2020 09:04 9,6 C 9,4 C 8,9 C 94 % 1002,2 hPa 0,0 l/m 0 min 0 min 63 W/m 19,3 km/h (3 Bft) 95,74 %
26.10.2020 09:06 9,6 C 9,4 C 8,9 C 94 % 1002,1 hPa 0,0 l/m 0 min 0 min 62 W/m 19,3 km/h (3 Bft) 95,74 %
26.10.2020 09:08 9,6 C 9,4 C 8,9 C 94 % 1002,0 hPa 0,0 l/m 0 min 0 min 66 W/m 25,7 km/h (4 Bft) 95,74 %
26.10.2020 09:10 9,6 C 9,4 C 8,9 C 94 % 1001,9 hPa 0,0 l/m 0 min 0 min 70 W/m 19,3 km/h (3 Bft) 97,87 %
26.10.2020 09:12 9,7 C 9,4 C 8,9 C 94 % 1002,0 hPa 0,0 l/m 0 min 0 min 70 W/m 22,5 km/h (4 Bft) 97,83 %
26.10.2020 09:14 9,7 C 10,0 C 8,9 C 93 % 1001,9 hPa 0,0 l/m 0 min 0 min 72 W/m 19,3 km/h (3 Bft) 95,74 %
26.10.2020 09:16 9,7 C 10,0 C 8,9 C 93 % 1002,0 hPa 0,0 l/m 0 min 0 min 74 W/m 19,3 km/h (3 Bft) 93,62 %
26.10.2020 09:18 9,8 C 10,0 C 8,9 C 93 % 1002,0 hPa 0,0 l/m 0 min 0 min 80 W/m 19,3 km/h (3 Bft) 95,74 %
26.10.2020 09:20 9,8 C 10,0 C 8,9 C 92 % 1002,0 hPa 0,0 l/m 0 min 0 min 86 W/m 25,7 km/h (4 Bft) 97,87 %
26.10.2020 09:22 9,8 C 10,0 C 8,9 C 92 % 1001,9 hPa 0,0 l/m 0 min 0 min 89 W/m 41,8 km/h (6 Bft) 97,83 %
26.10.2020 09:24 9,8 C 10,0 C 8,9 C 92 % 1001,9 hPa 0,0 l/m 0 min 0 min 88 W/m 22,5 km/h (4 Bft) 95,74 %
26.10.2020 09:26 9,8 C 10,0 C 8,9 C 92 % 1001,9 hPa 0,0 l/m 0 min 0 min 86 W/m 19,3 km/h (3 Bft) 93,62 %
26.10.2020 09:28 9,9 C 10,0 C 9,5 C 91 % 1001,9 hPa 0,0 l/m 0 min 0 min 86 W/m 22,5 km/h (4 Bft) 95,74 %
26.10.2020 09:30 9,9 C 10,0 C 9,5 C 91 % 1001,9 hPa 0,0 l/m 0 min 0 min 88 W/m 29,0 km/h (5 Bft) 95,74 %
26.10.2020 09:32 9,9 C 10,0 C 9,5 C 91 % 1002,0 hPa 0,0 l/m 0 min 0 min 84 W/m 16,1 km/h (3 Bft) 93,62 %
26.10.2020 09:34 9,9 C 10,0 C 9,5 C 91 % 1002,0 hPa 0,0 l/m 0 min 0 min 76 W/m 12,9 km/h (3 Bft) 93,48 %
26.10.2020 09:36 9,9 C 10,0 C 9,5 C 91 % 1002,2 hPa 0,0 l/m 0 min 0 min 70 W/m 16,1 km/h (3 Bft) 95,74 %
26.10.2020 09:38 9,9 C 10,0 C 9,5 C 91 % 1002,2 hPa 0,0 l/m 0 min 0 min 77 W/m 16,1 km/h (3 Bft) 95,74 %
26.10.2020 09:40 9,9 C 10,0 C 9,5 C 91 % 1002,3 hPa 0,0 l/m 0 min 0 min 105 W/m 22,5 km/h (4 Bft) 95,74 %
26.10.2020 09:42 9,9 C 10,0 C 9,5 C 91 % 1002,4 hPa 0,0 l/m 0 min 0 min 133 W/m 19,3 km/h (3 Bft) 95,74 %
26.10.2020 09:44 10,0 C 10,0 C 9,5 C 90 % 1002,4 hPa 0,0 l/m 0 min 0 min 123 W/m 29,0 km/h (5 Bft) 95,74 %
26.10.2020 09:46 10,0 C 10,0 C 9,5 C 90 % 1002,4 hPa 0,0 l/m 0 min 0 min 131 W/m 16,1 km/h (3 Bft) 95,65 %
26.10.2020 09:48 10,0 C 10,6 C 9,5 C 90 % 1002,6 hPa 0,0 l/m 0 min 0 min 148 W/m 22,5 km/h (4 Bft) 95,74 %
26.10.2020 09:50 10,0 C 10,6 C 9,5 C 90 % 1002,5 hPa 0,0 l/m 2 min 0 min 167 W/m 35,4 km/h (5 Bft) 97,87 %
26.10.2020 09:52 10,0 C 10,6 C 9,5 C 90 % 1002,5 hPa 0,0 l/m 0 min 0 min 149 W/m 25,7 km/h (4 Bft) 95,74 %
26.10.2020 09:54 10,1 C 10,6 C 9,5 C 90 % 1002,5 hPa 0,0 l/m 0 min 0 min 148 W/m 22,5 km/h (4 Bft) 97,87 %
26.10.2020 09:56 10,1 C 10,6 C 10,0 C 89 % 1002,6 hPa 0,0 l/m 0 min 0 min 148 W/m 22,5 km/h (4 Bft) 97,87 %
26.10.2020 09:58 10,1 C 10,6 C 10,0 C 89 % 1002,6 hPa 0,0 l/m 0 min 0 min 149 W/m 22,5 km/h (4 Bft) 100,00 %
26.10.2020 10:00 10,2 C 10,6 C 10,0 C 89 % 1002,6 hPa 0,0 l/m 0 min 0 min 149 W/m 25,7 km/h (4 Bft) 97,87 %
26.10.2020 10:02 10,2 C 10,6 C 10,0 C 89 % 1002,6 hPa 0,0 l/m 0 min 0 min 148 W/m 25,7 km/h (4 Bft) 95,74 %
26.10.2020 10:04 10,3 C 10,6 C 10,0 C 88 % 1002,5 hPa 0,0 l/m 0 min 0 min 140 W/m 35,4 km/h (5 Bft) 95,74 %
26.10.2020 10:06 10,3 C 10,6 C 10,0 C 88 % 1002,6 hPa 0,0 l/m 0 min 0 min 133 W/m 29,0 km/h (5 Bft) 97,87 %
26.10.2020 10:08 10,3 C 10,6 C 10,0 C 88 % 1002,5 hPa 0,0 l/m 0 min 0 min 133 W/m 25,7 km/h (4 Bft) 97,83 %
26.10.2020 10:10 10,3 C 10,6 C 9,5 C 87 % 1002,6 hPa 0,0 l/m 0 min 0 min 146 W/m 19,3 km/h (3 Bft) 97,87 %
26.10.2020 10:12 10,4 C 11,1 C 10,0 C 87 % 1002,6 hPa 0,0 l/m 0 min 0 min 173 W/m 0,0 km/h (0 Bft) 97,44 %
26.10.2020 10:14 10,4 C 11,1 C 10,0 C 87 % 1002,7 hPa 0,0 l/m 0 min 0 min 151 W/m 22,5 km/h (4 Bft) 100,00 %
26.10.2020 10:16 10,4 C 11,1 C 10,0 C 87 % 1002,6 hPa 0,0 l/m 2 min 0 min 182 W/m 19,3 km/h (3 Bft) 100,00 %
26.10.2020 10:18 10,4 C 11,7 C 10,0 C 87 % 1002,6 hPa 0,0 l/m 2 min 0 min 237 W/m 29,0 km/h (5 Bft) 100,00 %
26.10.2020 10:20 10,5 C 11,7 C 10,0 C 87 % 1002,6 hPa 0,0 l/m 2 min 0 min 254 W/m 32,2 km/h (5 Bft) 100,00 %
26.10.2020 10:22 10,5 C 11,7 C 10,0 C 87 % 1002,6 hPa 0,0 l/m 2 min 0 min 276 W/m 3,2 km/h (1 Bft) 100,00 %
26.10.2020 10:24 10,5 C 11,1 C 10,0 C 86 % 1002,7 hPa 0,0 l/m 0 min 0 min 151 W/m 38,6 km/h (5 Bft) 100,00 %
26.10.2020 10:26 10,6 C 11,1 C 10,0 C 86 % 1002,6 hPa 0,0 l/m 2 min 0 min 208 W/m 32,2 km/h (5 Bft) 100,00 %
26.10.2020 10:28 10,6 C 11,7 C 10,0 C 86 % 1002,6 hPa 0,0 l/m 2 min 0 min 335 W/m 25,7 km/h (4 Bft) 100,00 %
26.10.2020 10:30 10,7 C 11,7 C 10,0 C 86 % 1002,6 hPa 0,0 l/m 2 min 0 min 344 W/m 22,5 km/h (4 Bft) 100,00 %
26.10.2020 10:32 10,8 C 12,2 C 10,0 C 86 % 1002,5 hPa 0,0 l/m 2 min 0 min 197 W/m 19,3 km/h (3 Bft) 100,00 %
26.10.2020 10:34 10,8 C 12,2 C 10,6 C 86 % 1002,5 hPa 0,0 l/m 2 min 0 min 346 W/m 0,0 km/h (0 Bft) 100,00 %
26.10.2020 10:36 10,9 C 12,2 C 10,6 C 86 % 1002,5 hPa 0,0 l/m 2 min 0 min 197 W/m 22,5 km/h (4 Bft) 100,00 %
26.10.2020 10:38 10,9 C 12,2 C 10,6 C 86 % 1002,5 hPa 0,0 l/m 2 min 0 min 266 W/m 16,1 km/h (3 Bft) 97,87 %
26.10.2020 10:40 11,0 C 12,2 C 10,6 C 86 % 1002,4 hPa 0,0 l/m 2 min 0 min 332 W/m 22,5 km/h (4 Bft) 97,14 %
26.10.2020 10:42 11,0 C 12,8 C 10,6 C 85 % 1002,3 hPa 0,0 l/m 2 min 0 min 250 W/m 12,9 km/h (3 Bft) 95,74 %
26.10.2020 10:44 11,0 C 12,2 C 10,6 C 84 % 1002,4 hPa 0,0 l/m 2 min 0 min 240 W/m 35,4 km/h (5 Bft) 97,87 %
26.10.2020 10:46 11,1 C 12,8 C 10,6 C 84 % 1002,3 hPa 0,0 l/m 2 min 0 min 224 W/m 32,2 km/h (5 Bft) 95,74 %
26.10.2020 10:48 11,1 C 13,3 C 10,6 C 83 % 1002,3 hPa 0,0 l/m 2 min 0 min 275 W/m 35,4 km/h (5 Bft) 95,74 %
26.10.2020 10:50 11,2 C 14,4 C 10,6 C 83 % 1002,3 hPa 0,0 l/m 2 min 0 min 307 W/m 16,1 km/h (3 Bft) 97,83 %
26.10.2020 10:52 11,3 C 14,4 C 10,6 C 83 % 1002,3 hPa 0,0 l/m 2 min 0 min 310 W/m 22,5 km/h (4 Bft) 97,87 %
26.10.2020 10:54 11,3 C 13,9 C 10,6 C 83 % 1002,3 hPa 0,0 l/m 2 min 0 min 248 W/m 25,7 km/h (4 Bft) 97,87 %
26.10.2020 10:56 11,4 C 12,8 C 10,6 C 82 % 1002,4 hPa 0,0 l/m 0 min 0 min 199 W/m 38,6 km/h (5 Bft) 97,87 %
26.10.2020 10:58 11,4 C 12,2 C 10,6 C 82 % 1002,3 hPa 0,0 l/m 2 min 0 min 235 W/m 41,8 km/h (6 Bft) 95,74 %
26.10.2020 11:00 11,4 C 12,2 C 10,6 C 81 % 1002,3 hPa 0,0 l/m 0 min 0 min 198 W/m 19,3 km/h (3 Bft) 97,87 %
26.10.2020 11:02 11,4 C 12,2 C 10,6 C 81 % 1002,2 hPa 0,0 l/m 0 min 0 min 195 W/m 32,2 km/h (5 Bft) 97,83 %
26.10.2020 11:04 11,4 C 11,7 C 10,6 C 80 % 1002,4 hPa 0,0 l/m 0 min 0 min 137 W/m 32,2 km/h (5 Bft) 97,87 %
26.10.2020 11:06 11,4 C 11,7 C 10,6 C 80 % 1002,3 hPa 0,0 l/m 0 min 0 min 173 W/m 22,5 km/h (4 Bft) 95,74 %
26.10.2020 11:08 11,4 C 11,7 C 10,6 C 79 % 1002,3 hPa 0,0 l/m 0 min 0 min 201 W/m 38,6 km/h (5 Bft) 97,87 %
26.10.2020 11:10 11,4 C 11,7 C 10,6 C 79 % 1002,3 hPa 0,0 l/m 0 min 0 min 123 W/m 25,7 km/h (4 Bft) 97,87 %
26.10.2020 11:12 11,4 C 11,7 C 10,6 C 79 % 1002,3 hPa 0,0 l/m 0 min 0 min 123 W/m 16,1 km/h (3 Bft) 97,87 %
26.10.2020 11:14 11,4 C 11,1 C 10,6 C 79 % 1002,7 hPa 0,0 l/m 0 min 0 min 127 W/m 35,4 km/h (5 Bft) 95,65 %
26.10.2020 11:16 11,4 C 11,1 C 10,0 C 79 % 1002,3 hPa 0,0 l/m 0 min 0 min 139 W/m 25,7 km/h (4 Bft) 95,74 %
26.10.2020 11:18 11,4 C 11,1 C 10,0 C 79 % 1002,3 hPa 0,0 l/m 0 min 0 min 123 W/m 29,0 km/h (5 Bft) 97,87 %
26.10.2020 11:20 11,4 C 11,1 C 10,0 C 79 % 1002,3 hPa 0,0 l/m 0 min 0 min 115 W/m 29,0 km/h (5 Bft) 97,87 %
26.10.2020 11:22 11,4 C 12,2 C 10,0 C 80 % 1002,3 hPa 0,0 l/m 0 min 0 min 190 W/m 12,9 km/h (3 Bft) 95,74 %
26.10.2020 11:24 11,4 C 11,7 C 10,0 C 80 % 1002,4 hPa 0,0 l/m 0 min 0 min 182 W/m 29,0 km/h (5 Bft) 97,83 %
26.10.2020 11:26 11,4 C 11,7 C 10,0 C 80 % 1002,5 hPa 0,0 l/m 0 min 0 min 140 W/m 32,2 km/h (5 Bft) 97,87 %
26.10.2020 11:28 11,3 C 11,1 C 10,0 C 80 % 1002,4 hPa 0,0 l/m 0 min 0 min 125 W/m 25,7 km/h (4 Bft) 97,87 %
26.10.2020 11:30 11,3 C 11,1 C 10,0 C 80 % 1002,4 hPa 0,0 l/m 0 min 0 min 128 W/m 29,0 km/h (5 Bft) 95,74 %
26.10.2020 11:32 11,3 C 11,7 C 10,0 C 80 % 1002,5 hPa 0,0 l/m 0 min 0 min 148 W/m 25,7 km/h (4 Bft) 97,87 %
26.10.2020 11:34 11,3 C 11,7 C 10,0 C 80 % 1002,5 hPa 0,0 l/m 0 min 0 min 167 W/m 19,3 km/h (3 Bft) 97,87 %
26.10.2020 11:36 11,3 C 12,2 C 10,6 C 80 % 1002,6 hPa 0,0 l/m 0 min 0 min 200 W/m 29,0 km/h (5 Bft) 95,65 %
26.10.2020 11:38 11,3 C 11,7 C 10,6 C 80 % 1002,5 hPa 0,0 l/m 0 min 0 min 195 W/m 29,0 km/h (5 Bft) 95,74 %
26.10.2020 11:40 11,4 C 11,7 C 10,6 C 80 % 1002,5 hPa 0,0 l/m 0 min 0 min 205 W/m 38,6 km/h (5 Bft) 97,87 %
26.10.2020 11:42 11,4 C 11,7 C 10,6 C 79 % 1002,5 hPa 0,0 l/m 0 min 0 min 132 W/m 22,5 km/h (4 Bft) 95,74 %
26.10.2020 11:44 11,4 C 11,7 C 10,6 C 79 % 1002,4 hPa 0,0 l/m 0 min 0 min 155 W/m 19,3 km/h (3 Bft) 97,87 %
26.10.2020 11:46 11,4 C 11,7 C 10,6 C 79 % 1002,4 hPa 0,0 l/m 0 min 0 min 210 W/m 29,0 km/h (5 Bft) 95,74 %
26.10.2020 11:48 11,4 C 11,7 C 10,6 C 79 % 1002,5 hPa 0,0 l/m 0 min 0 min 197 W/m 25,7 km/h (4 Bft) 97,83 %
26.10.2020 11:50 11,4 C 11,7 C 10,6 C 79 % 1002,3 hPa 0,0 l/m 0 min 0 min 154 W/m 29,0 km/h (5 Bft) 97,87 %
26.10.2020 11:52 11,4 C 11,7 C 10,6 C 79 % 1002,4 hPa 0,0 l/m 0 min 0 min 148 W/m 19,3 km/h (3 Bft) 97,87 %
26.10.2020 11:54 11,5 C 11,7 C 10,6 C 79 % 1002,3 hPa 0,0 l/m 0 min 0 min 129 W/m 32,2 km/h (5 Bft) 97,87 %
26.10.2020 11:56 11,5 C 11,1 C 10,6 C 79 % 1002,3 hPa 0,0 l/m 0 min 0 min 96 W/m 29,0 km/h (5 Bft) 93,62 %
26.10.2020 11:58 11,4 C 11,1 C 10,0 C 79 % 1002,3 hPa 0,0 l/m 0 min 0 min 86 W/m 25,7 km/h (4 Bft) 97,87 %
26.10.2020 12:00 11,4 C 11,1 C 10,0 C 78 % 1002,4 hPa 0,0 l/m 0 min 0 min 71 W/m 29,0 km/h (5 Bft) 97,83 %
26.10.2020 12:02 11,4 C 11,1 C 10,0 C 78 % 1002,5 hPa 0,0 l/m 0 min 0 min 50 W/m 22,5 km/h (4 Bft) 97,87 %
26.10.2020 12:04 11,4 C 10,6 C 10,0 C 78 % 1002,5 hPa 0,0 l/m 0 min 0 min 40 W/m 22,5 km/h (4 Bft) 97,87 %
26.10.2020 12:08 11,4 C 10,6 C 10,0 C 79 % 1002,5 hPa 0,0 l/m 0 min 0 min 44 W/m 16,1 km/h (3 Bft) 98,00 %
26.10.2020 12:10 11,4 C 10,6 C 10,0 C 79 % 1002,4 hPa 0,0 l/m 0 min 0 min 52 W/m 12,9 km/h (3 Bft) 100,00 %
26.10.2020 12:12 11,4 C 10,6 C 10,0 C 79 % 1002,4 hPa 0,0 l/m 0 min 0 min 50 W/m 0,0 km/h (0 Bft) 100,00 %
26.10.2020 12:14 11,4 C 10,6 C 10,0 C 79 % 1002,3 hPa 0,0 l/m 0 min 0 min 50 W/m 22,5 km/h (4 Bft) 100,00 %
26.10.2020 12:16 11,3 C 10,6 C 10,0 C 79 % 1002,3 hPa 0,0 l/m 0 min 0 min 58 W/m 19,3 km/h (3 Bft) 97,87 %
26.10.2020 12:18 11,3 C 10,6 C 10,0 C 78 % 1002,3 hPa 0,0 l/m 0 min 0 min 75 W/m 35,4 km/h (5 Bft) 97,87 %
26.10.2020 12:20 11,3 C 10,6 C 10,0 C 79 % 1002,3 hPa 0,0 l/m 0 min 0 min 101 W/m 16,1 km/h (3 Bft) 95,74 %
26.10.2020 12:22 11,3 C 11,1 C 10,0 C 79 % 1002,3 hPa 0,0 l/m 0 min 0 min 101 W/m 25,7 km/h (4 Bft) 100,00 %
26.10.2020 12:24 11,3 C 11,1 C 10,0 C 79 % 1002,3 hPa 0,0 l/m 0 min 0 min 108 W/m 16,1 km/h (3 Bft) 100,00 %
26.10.2020 12:26 11,3 C 11,1 C 10,0 C 79 % 1002,4 hPa 0,0 l/m 0 min 0 min 119 W/m 16,1 km/h (3 Bft) 100,00 %
26.10.2020 12:28 11,3 C 11,1 C 10,0 C 79 % 1002,5 hPa 0,0 l/m 0 min 0 min 121 W/m 19,3 km/h (3 Bft) 100,00 %
26.10.2020 12:30 11,3 C 11,1 C 10,0 C 79 % 1002,4 hPa 0,0 l/m 0 min 0 min 126 W/m 22,5 km/h (4 Bft) 97,83 %
26.10.2020 12:32 11,3 C 11,1 C 10,0 C 79 % 1002,5 hPa 0,0 l/m 0 min 0 min 117 W/m 22,5 km/h (4 Bft) 97,87 %
26.10.2020 12:34 11,3 C 11,1 C 10,0 C 79 % 1002,4 hPa 0,0 l/m 0 min 0 min 137 W/m 16,1 km/h (3 Bft) 100,00 %
26.10.2020 12:36 11,3 C 11,7 C 10,0 C 79 % 1002,5 hPa 0,0 l/m 0 min 0 min 157 W/m 6,4 km/h (2 Bft) 100,00 %
26.10.2020 12:38 11,3 C 11,7 C 10,6 C 79 % 1002,5 hPa 0,0 l/m 0 min 0 min 180 W/m 19,3 km/h (3 Bft) 97,87 %
26.10.2020 12:40 11,4 C 11,7 C 10,6 C 79 % 1002,4 hPa 0,0 l/m 0 min 0 min 174 W/m 16,1 km/h (3 Bft) 97,83 %
26.10.2020 12:42 11,4 C 12,2 C 10,6 C 79 % 1002,4 hPa 0,0 l/m 0 min 0 min 177 W/m 6,4 km/h (2 Bft) 97,87 %
26.10.2020 12:44 11,4 C 12,2 C 10,6 C 79 % 1002,4 hPa 0,0 l/m 2 min 0 min 217 W/m 0,0 km/h (0 Bft) 100,00 %
26.10.2020 12:46 11,5 C 12,2 C 10,6 C 79 % 1002,4 hPa 0,0 l/m 0 min 0 min 180 W/m 0,0 km/h (0 Bft) 100,00 %
26.10.2020 12:48 11,5 C 12,8 C 10,6 C 80 % 1002,4 hPa 0,0 l/m 0 min 0 min 187 W/m 12,9 km/h (3 Bft) 97,87 %
26.10.2020 12:50 11,5 C 14,4 C 11,7 C 80 % 1002,5 hPa 0,0 l/m 0 min 0 min 197 W/m 25,7 km/h (4 Bft) 95,74 %
26.10.2020 12:52 11,6 C 13,3 C 11,1 C 80 % 1002,5 hPa 0,0 l/m 0 min 0 min 173 W/m 29,0 km/h (5 Bft) 97,83 %
26.10.2020 12:54 11,8 C 13,3 C 11,1 C 79 % 1002,5 hPa 0,0 l/m 0 min 0 min 174 W/m 29,0 km/h (5 Bft) 97,87 %
26.10.2020 12:56 11,8 C 12,8 C 10,6 C 78 % 1002,4 hPa 0,0 l/m 2 min 0 min 245 W/m 29,0 km/h (5 Bft) 95,74 %
26.10.2020 12:58 11,8 C 13,3 C 10,6 C 78 % 1002,4 hPa 0,0 l/m 2 min 0 min 278 W/m 25,7 km/h (4 Bft) 97,83 %
26.10.2020 13:00 11,9 C 13,3 C 11,1 C 78 % 1002,4 hPa 0,0 l/m 2 min 0 min 273 W/m 22,5 km/h (4 Bft) 95,74 %
26.10.2020 13:02 12,0 C 14,4 C 11,1 C 78 % 1002,4 hPa 0,0 l/m 0 min 0 min 210 W/m 16,1 km/h (3 Bft) 97,87 %
26.10.2020 13:04 12,0 C 13,9 C 10,6 C 79 % 1002,3 hPa 0,0 l/m 0 min 0 min 204 W/m 29,0 km/h (5 Bft) 97,83 %
26.10.2020 13:06 12,0 C 14,4 C 10,6 C 78 % 1002,2 hPa 0,0 l/m 0 min 0 min 192 W/m 3,2 km/h (1 Bft) 97,87 %
26.10.2020 13:08 12,1 C 13,9 C 10,6 C 78 % 1002,3 hPa 0,0 l/m 0 min 0 min 187 W/m 0,0 km/h (0 Bft) 97,87 %
26.10.2020 13:10 12,1 C 12,8 C 10,6 C 77 % 1002,2 hPa 0,0 l/m 0 min 0 min 141 W/m 0,0 km/h (0 Bft) 97,87 %
26.10.2020 13:12 12,2 C 12,8 C 10,6 C 77 % 1002,3 hPa 0,0 l/m 0 min 0 min 129 W/m 0,0 km/h (0 Bft) 95,74 %
26.10.2020 13:14 12,2 C 12,2 C 10,6 C 77 % 1002,2 hPa 0,0 l/m 0 min 0 min 149 W/m 19,3 km/h (3 Bft) 97,87 %
26.10.2020 13:16 12,2 C 12,2 C 10,6 C 76 % 1002,2 hPa 0,0 l/m 0 min 0 min 128 W/m 19,3 km/h (3 Bft) 97,83 %
26.10.2020 13:18 12,1 C 11,7 C 10,6 C 76 % 1002,3 hPa 0,0 l/m 0 min 0 min 98 W/m 25,7 km/h (4 Bft) 97,87 %
26.10.2020 13:20 12,1 C 12,2 C 10,6 C 76 % 1002,3 hPa 0,0 l/m 0 min 0 min 186 W/m 25,7 km/h (4 Bft) 97,87 %
26.10.2020 13:22 12,1 C 12,8 C 10,6 C 76 % 1002,4 hPa 0,0 l/m 2 min 0 min 218 W/m 25,7 km/h (4 Bft) 95,74 %
26.10.2020 13:24 12,1 C 13,3 C 10,6 C 76 % 1002,4 hPa 0,0 l/m 0 min 0 min 205 W/m 22,5 km/h (4 Bft) 95,74 %
26.10.2020 13:26 12,1 C 12,8 C 10,6 C 76 % 1002,2 hPa 0,0 l/m 0 min 0 min 188 W/m 25,7 km/h (4 Bft) 97,87 %
26.10.2020 13:28 12,1 C 12,8 C 10,6 C 77 % 1002,3 hPa 0,0 l/m 0 min 0 min 163 W/m 25,7 km/h (4 Bft) 97,83 %
26.10.2020 13:30 12,2 C 15,0 C 10,6 C 77 % 1002,2 hPa 0,0 l/m 0 min 0 min 203 W/m 22,5 km/h (4 Bft) 95,74 %
26.10.2020 13:32 12,3 C 15,6 C 11,1 C 77 % 1002,2 hPa 0,0 l/m 2 min 0 min 419 W/m 22,5 km/h (4 Bft) 97,87 %
26.10.2020 13:34 12,4 C 13,9 C 10,6 C 77 % 1002,2 hPa 0,0 l/m 2 min 0 min 257 W/m 22,5 km/h (4 Bft) 97,87 %
26.10.2020 13:36 12,4 C 12,8 C 10,6 C 76 % 1002,2 hPa 0,0 l/m 0 min 0 min 141 W/m 29,0 km/h (5 Bft) 95,74 %
26.10.2020 13:38 12,4 C 13,9 C 10,6 C 76 % 1002,2 hPa 0,0 l/m 2 min 0 min 227 W/m 12,9 km/h (3 Bft) 93,62 %
26.10.2020 13:40 12,4 C 13,3 C 10,6 C 76 % 1002,1 hPa 0,0 l/m 2 min 0 min 201 W/m 19,3 km/h (3 Bft) 93,48 %
26.10.2020 13:42 12,4 C 13,9 C 10,6 C 76 % 1002,1 hPa 0,0 l/m 2 min 0 min 225 W/m 29,0 km/h (5 Bft) 93,62 %
26.10.2020 13:44 12,4 C 14,4 C 11,1 C 76 % 1002,2 hPa 0,0 l/m 2 min 0 min 250 W/m 25,7 km/h (4 Bft) 95,74 %
26.10.2020 13:46 12,4 C 13,9 C 11,1 C 76 % 1002,1 hPa 0,0 l/m 2 min 0 min 243 W/m 16,1 km/h (3 Bft) 95,74 %
26.10.2020 13:48 12,5 C 13,3 C 10,6 C 76 % 1002,3 hPa 0,0 l/m 0 min 0 min 158 W/m 19,3 km/h (3 Bft) 97,87 %
26.10.2020 13:50 12,5 C 12,8 C 10,6 C 76 % 1002,2 hPa 0,0 l/m 0 min 0 min 137 W/m 19,3 km/h (3 Bft) 97,83 %
26.10.2020 13:52 12,5 C 12,8 C 10,6 C 76 % 1002,1 hPa 0,0 l/m 0 min 0 min 159 W/m 0,0 km/h (0 Bft) 97,87 %
26.10.2020 13:54 12,5 C 12,8 C 10,6 C 76 % 1002,2 hPa 0,0 l/m 0 min 0 min 163 W/m 16,1 km/h (3 Bft) 95,74 %
26.10.2020 13:56 12,5 C 12,8 C 10,6 C 76 % 1002,1 hPa 0,0 l/m 0 min 0 min 160 W/m 22,5 km/h (4 Bft) 95,74 %
26.10.2020 13:58 12,5 C 12,2 C 10,6 C 76 % 1002,1 hPa 0,0 l/m 0 min 0 min 156 W/m 29,0 km/h (5 Bft) 95,74 %
26.10.2020 14:00 12,5 C 12,8 C 10,6 C 76 % 1002,1 hPa 0,0 l/m 0 min 0 min 171 W/m 6,4 km/h (2 Bft) 95,74 %
26.10.2020 14:02 12,4 C 12,8 C 10,6 C 76 % 1002,2 hPa 0,0 l/m 0 min 0 min 187 W/m 22,5 km/h (4 Bft) 95,65 %
26.10.2020 14:04 12,5 C 12,8 C 10,6 C 77 % 1002,1 hPa 0,0 l/m 0 min 0 min 163 W/m 0,0 km/h (0 Bft) 95,74 %
26.10.2020 14:06 12,4 C 12,2 C 10,6 C 77 % 1002,1 hPa 0,0 l/m 0 min 0 min 157 W/m 22,5 km/h (4 Bft) 95,74 %
26.10.2020 14:08 12,4 C 12,2 C 10,6 C 77 % 1002,1 hPa 0,0 l/m 0 min 0 min 153 W/m 16,1 km/h (3 Bft) 95,74 %
26.10.2020 14:10 12,4 C 12,2 C 10,6 C 76 % 1002,0 hPa 0,0 l/m 0 min 0 min 129 W/m 19,3 km/h (3 Bft) 95,74 %
26.10.2020 14:12 12,4 C 12,2 C 10,6 C 76 % 1002,0 hPa 0,0 l/m 0 min 0 min 121 W/m 29,0 km/h (5 Bft) 91,49 %
26.10.2020 14:14 12,4 C 12,2 C 10,6 C 76 % 1002,0 hPa 0,0 l/m 0 min 0 min 117 W/m 16,1 km/h (3 Bft) 93,48 %
26.10.2020 14:16 12,4 C 12,2 C 10,6 C 76 % 1002,0 hPa 0,0 l/m 0 min 0 min 122 W/m 19,3 km/h (3 Bft) 95,74 %
26.10.2020 14:18 12,4 C 12,2 C 10,6 C 76 % 1001,9 hPa 0,0 l/m 0 min 0 min 119 W/m 6,4 km/h (2 Bft) 95,74 %
26.10.2020 14:20 12,4 C 12,2 C 10,6 C 76 % 1002,0 hPa 0,0 l/m 0 min 0 min 107 W/m 12,9 km/h (3 Bft) 97,87 %
26.10.2020 14:22 12,4 C 12,2 C 10,6 C 76 % 1002,0 hPa 0,0 l/m 0 min 0 min 113 W/m 25,7 km/h (4 Bft) 95,74 %
26.10.2020 14:24 12,4 C 12,2 C 10,6 C 76 % 1002,0 hPa 0,0 l/m 0 min 0 min 143 W/m 12,9 km/h (3 Bft) 97,87 %
26.10.2020 14:26 12,4 C 12,2 C 10,6 C 76 % 1002,0 hPa 0,0 l/m 0 min 0 min 140 W/m 25,7 km/h (4 Bft) 97,83 %
26.10.2020 14:28 12,4 C 12,2 C 10,6 C 76 % 1002,0 hPa 0,0 l/m 0 min 0 min 134 W/m 29,0 km/h (5 Bft) 95,74 %
26.10.2020 14:30 12,4 C 12,2 C 10,6 C 76 % 1002,1 hPa 0,0 l/m 0 min 0 min 135 W/m 12,9 km/h (3 Bft) 95,74 %
26.10.2020 14:32 12,4 C 12,2 C 10,6 C 76 % 1002,1 hPa 0,0 l/m 0 min 0 min 114 W/m 16,1 km/h (3 Bft) 100,00 %
26.10.2020 14:34 12,4 C 12,2 C 10,6 C 76 % 1002,2 hPa 0,0 l/m 0 min 0 min 119 W/m 16,1 km/h (3 Bft) 100,00 %
26.10.2020 14:36 12,4 C 12,2 C 10,6 C 76 % 1002,1 hPa 0,0 l/m 0 min 0 min 112 W/m 19,3 km/h (3 Bft) 100,00 %
26.10.2020 14:38 12,4 C 12,2 C 10,6 C 76 % 1002,2 hPa 0,0 l/m 0 min 0 min 99 W/m 19,3 km/h (3 Bft) 100,00 %
26.10.2020 14:40 12,4 C 12,2 C 10,6 C 75 % 1002,2 hPa 0,0 l/m 0 min 0 min 94 W/m 25,7 km/h (4 Bft) 97,87 %
26.10.2020 14:42 12,4 C 12,2 C 10,6 C 75 % 1002,2 hPa 0,0 l/m 0 min 0 min 97 W/m 19,3 km/h (3 Bft) 100,00 %
26.10.2020 14:44 12,4 C 12,2 C 10,6 C 76 % 1002,3 hPa 0,0 l/m 0 min 0 min 91 W/m 12,9 km/h (3 Bft) 97,87 %
26.10.2020 14:46 12,4 C 12,2 C 10,6 C 76 % 1002,2 hPa 0,0 l/m 0 min 0 min 86 W/m 22,5 km/h (4 Bft) 100,00 %
26.10.2020 14:48 12,4 C 12,2 C 10,6 C 76 % 1002,4 hPa 0,0 l/m 0 min 0 min 74 W/m 29,0 km/h (5 Bft) 97,83 %
26.10.2020 14:50 12,4 C 12,2 C 10,6 C 75 % 1002,4 hPa 0,0 l/m 0 min 0 min 70 W/m 16,1 km/h (3 Bft) 100,00 %
26.10.2020 14:52 12,4 C 12,2 C 10,6 C 75 % 1002,4 hPa 0,0 l/m 0 min 0 min 75 W/m 25,7 km/h (4 Bft) 100,00 %
26.10.2020 14:54 12,4 C 12,2 C 10,6 C 75 % 1002,5 hPa 0,0 l/m 0 min 0 min 77 W/m 29,0 km/h (5 Bft) 100,00 %
26.10.2020 14:56 12,4 C 12,2 C 10,6 C 75 % 1002,5 hPa 0,0 l/m 0 min 0 min 74 W/m 16,1 km/h (3 Bft) 100,00 %
26.10.2020 14:58 12,4 C 11,7 C 10,6 C 76 % 1002,5 hPa 0,0 l/m 0 min 0 min 65 W/m 22,5 km/h (4 Bft) 97,87 %
26.10.2020 15:00 12,4 C 11,7 C 10,6 C 76 % 1002,4 hPa 0,0 l/m 0 min 0 min 59 W/m 12,9 km/h (3 Bft) 100,00 %
26.10.2020 15:02 12,4 C 11,7 C 10,6 C 76 % 1002,5 hPa 0,0 l/m 0 min 0 min 62 W/m 12,9 km/h (3 Bft) 100,00 %
26.10.2020 15:04 12,3 C 11,7 C 10,6 C 76 % 1002,5 hPa 0,0 l/m 0 min 0 min 56 W/m 16,1 km/h (3 Bft) 100,00 %
26.10.2020 15:06 12,3 C 11,7 C 10,6 C 76 % 1002,5 hPa 0,0 l/m 0 min 0 min 45 W/m 16,1 km/h (3 Bft) 100,00 %
26.10.2020 15:08 12,4 C 11,7 C 10,6 C 76 % 1002,5 hPa 0,0 l/m 0 min 0 min 43 W/m 16,1 km/h (3 Bft) 100,00 %
26.10.2020 15:10 12,3 C 11,7 C 10,0 C 76 % 1002,6 hPa 0,0 l/m 0 min 0 min 46 W/m 19,3 km/h (3 Bft) 100,00 %
26.10.2020 15:12 12,3 C 11,7 C 10,0 C 76 % 1002,5 hPa 0,0 l/m 0 min 0 min 58 W/m 12,9 km/h (3 Bft) 100,00 %
26.10.2020 15:14 12,3 C 11,7 C 10,0 C 76 % 1002,5 hPa 0,0 l/m 0 min 0 min 62 W/m 19,3 km/h (3 Bft) 100,00 %
26.10.2020 15:16 12,3 C 11,7 C 10,6 C 76 % 1002,6 hPa 0,0 l/m 0 min 0 min 60 W/m 16,1 km/h (3 Bft) 100,00 %
26.10.2020 15:18 12,3 C 11,7 C 10,6 C 76 % 1002,6 hPa 0,0 l/m 0 min 0 min 53 W/m 16,1 km/h (3 Bft) 100,00 %
26.10.2020 15:20 12,3 C 11,7 C 10,0 C 76 % 1002,6 hPa 0,0 l/m 0 min 0 min 40 W/m 16,1 km/h (3 Bft) 97,87 %
26.10.2020 15:22 12,3 C 11,7 C 10,0 C 76 % 1002,7 hPa 0,0 l/m 0 min 0 min 32 W/m 22,5 km/h (4 Bft) 97,87 %
26.10.2020 15:24 12,2 C 11,7 C 10,0 C 76 % 1002,6 hPa 0,0 l/m 0 min 0 min 28 W/m 12,9 km/h (3 Bft) 100,00 %
26.10.2020 15:26 12,2 C 11,7 C 10,0 C 76 % 1002,6 hPa 0,0 l/m 0 min 0 min 26 W/m 12,9 km/h (3 Bft) 100,00 %
26.10.2020 15:28 12,2 C 11,7 C 10,0 C 76 % 1002,6 hPa 0,0 l/m 0 min 0 min 29 W/m 16,1 km/h (3 Bft) 100,00 %
26.10.2020 15:30 12,2 C 11,7 C 10,0 C 76 % 1002,6 hPa 0,0 l/m 0 min 0 min 35 W/m 16,1 km/h (3 Bft) 100,00 %
26.10.2020 15:32 12,1 C 11,7 C 10,0 C 76 % 1002,6 hPa 0,0 l/m 0 min 0 min 38 W/m 16,1 km/h (3 Bft) 100,00 %
26.10.2020 15:34 12,1 C 11,7 C 10,0 C 76 % 1002,5 hPa 0,0 l/m 0 min 0 min 30 W/m 0,0 km/h (0 Bft) 100,00 %
26.10.2020 15:36 12,1 C 11,7 C 10,0 C 77 % 1002,6 hPa 0,0 l/m 0 min 0 min 23 W/m 12,9 km/h (3 Bft) 100,00 %
26.10.2020 15:38 12,1 C 11,7 C 10,0 C 77 % 1002,6 hPa 0,0 l/m 0 min 0 min 24 W/m 9,7 km/h (2 Bft) 100,00 %
26.10.2020 15:40 12,1 C 11,7 C 10,0 C 77 % 1002,5 hPa 0,0 l/m 0 min 0 min 24 W/m 12,9 km/h (3 Bft) 100,00 %
26.10.2020 15:42 12,1 C 11,7 C 10,0 C 76 % 1002,6 hPa 0,0 l/m 0 min 0 min 24 W/m 0,0 km/h (0 Bft) 100,00 %
26.10.2020 15:44 12,1 C 11,7 C 10,0 C 77 % 1002,5 hPa 0,0 l/m 0 min 0 min 26 W/m 3,2 km/h (1 Bft) 97,87 %
26.10.2020 15:46 12,0 C 11,7 C 10,0 C 77 % 1002,5 hPa 0,0 l/m 0 min 0 min 25 W/m 3,2 km/h (1 Bft) 100,00 %
26.10.2020 15:48 12,0 C 11,1 C 10,0 C 77 % 1002,5 hPa 0,0 l/m 0 min 0 min 24 W/m 6,4 km/h (2 Bft) 100,00 %
26.10.2020 15:50 12,0 C 11,1 C 10,0 C 77 % 1002,5 hPa 0,0 l/m 0 min 0 min 23 W/m 6,4 km/h (2 Bft) 97,87 %
26.10.2020 15:52 12,0 C 11,1 C 10,0 C 77 % 1002,6 hPa 0,0 l/m 0 min 0 min 24 W/m 12,9 km/h (3 Bft) 95,74 %
26.10.2020 15:54 12,0 C 11,1 C 10,0 C 77 % 1002,6 hPa 0,0 l/m 0 min 0 min 24 W/m 22,5 km/h (4 Bft) 97,87 %
26.10.2020 15:56 12,0 C 11,1 C 10,0 C 77 % 1002,6 hPa 0,0 l/m 0 min 0 min 24 W/m 0,0 km/h (0 Bft) 97,87 %
26.10.2020 15:58 12,0 C 11,1 C 10,0 C 77 % 1002,6 hPa 0,0 l/m 0 min 0 min 26 W/m 6,4 km/h (2 Bft) 100,00 %
26.10.2020 16:00 12,0 C 11,1 C 10,0 C 77 % 1002,6 hPa 0,0 l/m 0 min 0 min 25 W/m 12,9 km/h (3 Bft) 97,87 %
26.10.2020 16:02 12,0 C 11,1 C 10,0 C 77 % 1002,6 hPa 0,0 l/m 0 min 0 min 20 W/m 12,9 km/h (3 Bft) 97,87 %
26.10.2020 16:04 12,0 C 11,1 C 10,0 C 77 % 1002,6 hPa 0,0 l/m 0 min 0 min 17 W/m 19,3 km/h (3 Bft) 97,87 %
26.10.2020 16:06 11,9 C 11,1 C 10,0 C 77 % 1002,7 hPa 0,0 l/m 0 min 0 min 15 W/m 12,9 km/h (3 Bft) 95,74 %
26.10.2020 16:08 11,9 C 11,1 C 10,0 C 77 % 1002,6 hPa 0,0 l/m 0 min 0 min 18 W/m 3,2 km/h (1 Bft) 70,21 %
26.10.2020 16:10 11,9 C 11,1 C 10,0 C 77 % 1002,7 hPa 0,0 l/m 0 min 0 min 19 W/m 3,2 km/h (1 Bft) 78,95 %
26.10.2020 16:12 11,9 C 11,1 C 10,0 C 77 % 1002,7 hPa 0,0 l/m 0 min 0 min 16 W/m 6,4 km/h (2 Bft) 97,87 %
26.10.2020 16:14 11,9 C 11,1 C 10,0 C 77 % 1002,7 hPa 0,0 l/m 0 min 0 min 14 W/m 12,9 km/h (3 Bft) 97,87 %
26.10.2020 16:16 11,9 C 11,1 C 10,0 C 77 % 1002,6 hPa 0,0 l/m 0 min 0 min 14 W/m 12,9 km/h (3 Bft) 97,87 %
26.10.2020 16:18 11,9 C 11,1 C 10,0 C 77 % 1002,6 hPa 0,0 l/m 0 min 0 min 17 W/m 6,4 km/h (2 Bft) 100,00 %
26.10.2020 16:20 11,9 C 11,1 C 10,0 C 77 % 1002,6 hPa 0,0 l/m 0 min 0 min 17 W/m 16,1 km/h (3 Bft) 97,87 %
26.10.2020 16:22 11,9 C 11,1 C 10,0 C 77 % 1002,5 hPa 0,0 l/m 0 min 0 min 16 W/m 6,4 km/h (2 Bft) 95,65 %
26.10.2020 16:24 11,9 C 11,1 C 10,0 C 77 % 1002,5 hPa 0,0 l/m 0 min 0 min 16 W/m 16,1 km/h (3 Bft) 97,87 %
26.10.2020 16:26 11,9 C 11,1 C 10,0 C 77 % 1002,6 hPa 0,0 l/m 0 min 0 min 14 W/m 16,1 km/h (3 Bft) 97,87 %
26.10.2020 16:28 11,9 C 11,1 C 10,0 C 77 % 1002,5 hPa 0,0 l/m 0 min 0 min 14 W/m 12,9 km/h (3 Bft) 97,87 %
26.10.2020 16:30 11,9 C 11,1 C 10,0 C 77 % 1002,5 hPa 0,0 l/m 0 min 0 min 14 W/m 0,0 km/h (0 Bft) 93,62 %
26.10.2020 16:32 11,8 C 11,1 C 10,0 C 77 % 1002,5 hPa 0,0 l/m 0 min 0 min 13 W/m 3,2 km/h (1 Bft) 93,62 %
26.10.2020 16:34 11,8 C 11,1 C 10,0 C 77 % 1002,4 hPa 0,0 l/m 0 min 0 min 12 W/m 0,0 km/h (0 Bft) 95,65 %
26.10.2020 16:36 11,8 C 11,1 C 10,0 C 76 % 1002,4 hPa 0,0 l/m 0 min 0 min 12 W/m 0,0 km/h (0 Bft) 95,74 %
26.10.2020 16:38 11,8 C 11,1 C 10,0 C 76 % 1002,5 hPa 0,0 l/m 0 min 0 min 12 W/m 0,0 km/h (0 Bft) 93,62 %
26.10.2020 16:40 11,8 C 11,1 C 10,0 C 76 % 1002,5 hPa 0,0 l/m 0 min 0 min 12 W/m 0,0 km/h (0 Bft) 93,62 %
26.10.2020 16:42 11,8 C 11,1 C 9,5 C 76 % 1002,5 hPa 0,0 l/m 0 min 0 min 14 W/m 0,0 km/h (0 Bft) 93,62 %
26.10.2020 16:44 11,8 C 10,6 C 9,5 C 77 % 1002,5 hPa 0,0 l/m 0 min 2 min 14 W/m 12,9 km/h (3 Bft) 93,62 %
26.10.2020 16:46 11,8 C 10,6 C 9,5 C 77 % 1002,5 hPa 0,0 l/m 0 min 0 min 13 W/m 6,4 km/h (2 Bft) 93,48 %
26.10.2020 16:48 11,8 C 10,6 C 9,5 C 77 % 1002,4 hPa 0,0 l/m 0 min 2 min 12 W/m 3,2 km/h (1 Bft) 91,49 %
26.10.2020 16:50 11,8 C 10,6 C 9,5 C 77 % 1002,5 hPa 0,0 l/m 0 min 0 min 11 W/m 3,2 km/h (1 Bft) 93,62 %
26.10.2020 16:52 11,8 C 10,6 C 9,5 C 77 % 1002,4 hPa 0,0 l/m 0 min 2 min 11 W/m 6,4 km/h (2 Bft) 95,74 %
26.10.2020 16:54 11,7 C 10,6 C 9,5 C 77 % 1002,4 hPa 0,0 l/m 0 min 0 min 7 W/m 9,7 km/h (2 Bft) 95,74 %
26.10.2020 16:56 11,7 C 11,1 C 9,5 C 77 % 1002,3 hPa 0,0 l/m 0 min 0 min 7 W/m 19,3 km/h (3 Bft) 95,65 %
26.10.2020 16:58 11,7 C 11,1 C 9,5 C 77 % 1002,3 hPa 0,0 l/m 0 min 0 min 6 W/m 19,3 km/h (3 Bft) 97,87 %
26.10.2020 17:00 11,6 C 11,1 C 9,5 C 77 % 1002,3 hPa 0,0 l/m 0 min 0 min 5 W/m 19,3 km/h (3 Bft) 95,74 %
26.10.2020 17:02 11,6 C 11,1 C 9,5 C 77 % 1002,3 hPa 0,0 l/m 0 min 0 min 4 W/m 19,3 km/h (3 Bft) 93,75 %
26.10.2020 17:04 11,6 C 11,1 C 9,5 C 77 % 1002,3 hPa 0,0 l/m 0 min 0 min 1 W/m 3,2 km/h (1 Bft) 91,49 %
26.10.2020 17:06 11,6 C 11,1 C 9,5 C 77 % 1002,4 hPa 0,0 l/m 0 min 0 min 5 W/m 0,0 km/h (0 Bft) 93,62 %
26.10.2020 17:08 11,6 C 11,1 C 9,5 C 77 % 1002,3 hPa 0,0 l/m 0 min 0 min 4 W/m 6,4 km/h (2 Bft) 95,65 %
26.10.2020 17:10 11,6 C 11,1 C 9,5 C 77 % 1002,3 hPa 0,0 l/m 0 min 0 min 0 W/m 16,1 km/h (3 Bft) 95,74 %
26.10.2020 17:12 11,6 C 11,1 C 9,5 C 76 % 1002,4 hPa 0,0 l/m 0 min 0 min 0 W/m 16,1 km/h (3 Bft) 95,74 %
26.10.2020 17:14 11,6 C 11,1 C 9,5 C 76 % 1002,3 hPa 0,0 l/m 0 min 0 min 0 W/m 3,2 km/h (1 Bft) 95,74 %
26.10.2020 17:16 11,6 C 11,1 C 9,5 C 76 % 1002,3 hPa 0,0 l/m 0 min 0 min 0 W/m 12,9 km/h (3 Bft) 97,87 %
26.10.2020 17:18 11,6 C 11,1 C 9,5 C 76 % 1002,3 hPa 0,0 l/m 0 min 0 min 0 W/m 6,4 km/h (2 Bft) 97,87 %
26.10.2020 17:20 11,6 C 11,1 C 9,5 C 76 % 1002,4 hPa 0,0 l/m 0 min 0 min 0 W/m 0,0 km/h (0 Bft) 97,83 %
26.10.2020 17:22 11,6 C 11,1 C 9,5 C 77 % 1002,4 hPa 0,0 l/m 0 min 0 min 0 W/m 0,0 km/h (0 Bft) 95,74 %
26.10.2020 17:24 11,6 C 11,1 C 9,5 C 77 % 1002,4 hPa 0,0 l/m 0 min 0 min 0 W/m 0,0 km/h (0 Bft) 97,87 %
26.10.2020 17:26 11,6 C 11,1 C 9,5 C 77 % 1002,4 hPa 0,0 l/m 0 min 0 min 0 W/m 3,2 km/h (1 Bft) 97,73 %
26.10.2020 17:28 11,6 C 11,1 C 9,5 C 77 % 1002,5 hPa 0,0 l/m 0 min 0 min 0 W/m 16,1 km/h (3 Bft) 97,87 %
26.10.2020 17:30 11,5 C 11,1 C 9,5 C 76 % 1002,4 hPa 0,0 l/m 0 min 0 min 0 W/m 6,4 km/h (2 Bft) 95,74 %
26.10.2020 17:32 11,6 C 11,1 C 9,5 C 76 % 1002,5 hPa 0,0 l/m 0 min 0 min 0 W/m 3,2 km/h (1 Bft) 97,83 %
26.10.2020 17:34 11,6 C 11,1 C 9,5 C 76 % 1002,5 hPa 0,0 l/m 0 min 0 min 0 W/m 3,2 km/h (1 Bft) 97,87 %
26.10.2020 17:36 11,5 C 11,1 C 9,5 C 76 % 1002,4 hPa 0,0 l/m 0 min 0 min 0 W/m 3,2 km/h (1 Bft) 95,74 %
26.10.2020 17:38 11,5 C 10,6 C 9,5 C 76 % 1002,5 hPa 0,0 l/m 0 min 0 min 0 W/m 3,2 km/h (1 Bft) 97,87 %
26.10.2020 17:40 11,5 C 10,6 C 9,5 C 76 % 1002,5 hPa 0,0 l/m 0 min 0 min 0 W/m 3,2 km/h (1 Bft) 95,74 %
26.10.2020 17:42 11,5 C 11,1 C 9,5 C 76 % 1002,5 hPa 0,0 l/m 0 min 0 min 0 W/m 3,2 km/h (1 Bft) 97,87 %
26.10.2020 17:44 11,5 C 10,6 C 9,5 C 76 % 1002,5 hPa 0,0 l/m 0 min 0 min 0 W/m 0,0 km/h (0 Bft) 100,00 %
26.10.2020 17:46 11,5 C 10,6 C 9,5 C 77 % 1002,5 hPa 0,0 l/m 0 min 0 min 0 W/m 0,0 km/h (0 Bft) 95,74 %
26.10.2020 17:48 11,5 C 10,6 C 9,5 C 77 % 1002,5 hPa 0,0 l/m 0 min 0 min 0 W/m 6,4 km/h (2 Bft) 97,87 %
26.10.2020 17:50 11,5 C 10,6 C 9,5 C 77 % 1002,6 hPa 0,0 l/m 0 min 0 min 0 W/m 0,0 km/h (0 Bft) 100,00 %
26.10.2020 17:52 11,5 C 10,6 C 9,5 C 77 % 1002,7 hPa 0,0 l/m 0 min 0 min 0 W/m 0,0 km/h (0 Bft) 97,87 %
26.10.2020 17:54 11,5 C 10,6 C 9,5 C 77 % 1002,7 hPa 0,0 l/m 0 min 0 min 0 W/m 0,0 km/h (0 Bft) 100,00 %
26.10.2020 17:56 11,5 C 10,6 C 9,5 C 77 % 1002,7 hPa 0,0 l/m 0 min 0 min 0 W/m 0,0 km/h (0 Bft) 97,83 %
26.10.2020 17:58 11,5 C 10,6 C 9,5 C 77 % 1002,6 hPa 0,0 l/m 0 min 0 min 0 W/m 0,0 km/h (0 Bft) 97,92 %
26.10.2020 18:00 11,5 C 10,6 C 9,5 C 77 % 1002,7 hPa 0,0 l/m 0 min 0 min 0 W/m 3,2 km/h (1 Bft) 100,00 %
26.10.2020 18:02 11,5 C 10,6 C 9,5 C 77 % 1002,7 hPa 0,0 l/m 0 min 0 min 0 W/m 0,0 km/h (0 Bft) 100,00 %
26.10.2020 18:04 11,5 C 10,6 C 9,5 C 77 % 1002,7 hPa 0,0 l/m 0 min 0 min 0 W/m 0,0 km/h (0 Bft) 97,87 %
26.10.2020 18:08 11,4 C 10,6 C 9,5 C 77 % 1002,8 hPa 0,0 l/m 0 min 0 min 0 W/m 19,3 km/h (3 Bft) 100,00 %
26.10.2020 18:10 11,4 C 10,6 C 9,5 C 77 % 1002,7 hPa 0,0 l/m 0 min 0 min 0 W/m 3,2 km/h (1 Bft) 100,00 %
26.10.2020 18:12 11,4 C 10,6 C 9,5 C 77 % 1002,6 hPa 0,0 l/m 0 min 0 min 0 W/m 3,2 km/h (1 Bft) 100,00 %
26.10.2020 18:14 11,4 C 10,6 C 9,5 C 77 % 1002,6 hPa 0,0 l/m 0 min 0 min 0 W/m 12,9 km/h (3 Bft) 100,00 %
26.10.2020 18:16 11,4 C 10,6 C 9,5 C 77 % 1002,6 hPa 0,0 l/m 0 min 0 min 0 W/m 0,0 km/h (0 Bft) 100,00 %
26.10.2020 18:18 11,4 C 10,6 C 9,5 C 77 % 1002,6 hPa 0,0 l/m 0 min 0 min 0 W/m 16,1 km/h (3 Bft) 100,00 %
26.10.2020 18:20 11,4 C 10,6 C 9,5 C 77 % 1002,7 hPa 0,0 l/m 0 min 0 min 0 W/m 6,4 km/h (2 Bft) 100,00 %
26.10.2020 18:22 11,4 C 10,6 C 9,5 C 78 % 1002,6 hPa 0,0 l/m 0 min 0 min 0 W/m 0,0 km/h (0 Bft) 100,00 %
26.10.2020 18:24 11,4 C 10,6 C 9,5 C 78 % 1002,6 hPa 0,0 l/m 0 min 0 min 0 W/m 0,0 km/h (0 Bft) 100,00 %
26.10.2020 18:26 11,4 C 10,6 C 9,5 C 78 % 1002,6 hPa 0,0 l/m 0 min 0 min 0 W/m 12,9 km/h (3 Bft) 100,00 %
26.10.2020 18:28 11,4 C 10,6 C 9,5 C 78 % 1002,7 hPa 0,0 l/m 0 min 0 min 0 W/m 0,0 km/h (0 Bft) 100,00 %
26.10.2020 18:30 11,4 C 10,6 C 9,5 C 78 % 1002,7 hPa 0,0 l/m 0 min 0 min 0 W/m 3,2 km/h (1 Bft) 97,83 %
26.10.2020 18:32 11,3 C 10,6 C 9,5 C 78 % 1002,7 hPa 0,0 l/m 0 min 0 min 0 W/m 0,0 km/h (0 Bft) 100,00 %
26.10.2020 18:34 11,3 C 10,6 C 9,5 C 79 % 1002,7 hPa 0,0 l/m 0 min 0 min 0 W/m 3,2 km/h (1 Bft) 97,87 %
26.10.2020 18:36 11,3 C 10,0 C 8,9 C 79 % 1002,8 hPa 0,0 l/m 0 min 0 min 0 W/m 3,2 km/h (1 Bft) 100,00 %
26.10.2020 18:38 11,3 C 10,0 C 8,9 C 79 % 1002,8 hPa 0,0 l/m 0 min 0 min 0 W/m 0,0 km/h (0 Bft) 100,00 %
26.10.2020 18:40 11,3 C 10,0 C 8,9 C 79 % 1002,8 hPa 0,0 l/m 0 min 0 min 0 W/m 0,0 km/h (0 Bft) 95,74 %
26.10.2020 18:42 11,3 C 10,0 C 8,9 C 79 % 1002,8 hPa 0,0 l/m 0 min 0 min 0 W/m 0,0 km/h (0 Bft) 100,00 %
26.10.2020 18:44 11,3 C 10,0 C 8,9 C 80 % 1002,8 hPa 0,0 l/m 0 min 0 min 0 W/m 0,0 km/h (0 Bft) 100,00 %
26.10.2020 18:46 11,2 C 10,0 C 8,9 C 80 % 1002,9 hPa 0,0 l/m 0 min 0 min 0 W/m 22,5 km/h (4 Bft) 100,00 %
26.10.2020 18:48 11,2 C 10,0 C 8,9 C 79 % 1003,0 hPa 0,0 l/m 0 min 0 min 0 W/m 19,3 km/h (3 Bft) 100,00 %
26.10.2020 18:50 11,1 C 10,0 C 8,9 C 79 % 1003,0 hPa 0,0 l/m 0 min 0 min 0 W/m 25,7 km/h (4 Bft) 97,87 %
26.10.2020 18:52 11,1 C 10,0 C 8,9 C 79 % 1003,0 hPa 0,0 l/m 0 min 0 min 0 W/m 3,2 km/h (1 Bft) 97,87 %
26.10.2020 18:54 11,1 C 10,0 C 8,9 C 80 % 1003,1 hPa 0,0 l/m 0 min 0 min 0 W/m 12,9 km/h (3 Bft) 97,83 %
26.10.2020 18:56 11,1 C 10,0 C 8,9 C 80 % 1003,0 hPa 0,0 l/m 0 min 0 min 0 W/m 19,3 km/h (3 Bft) 95,74 %
26.10.2020 18:58 11,1 C 10,0 C 8,9 C 80 % 1003,1 hPa 0,0 l/m 0 min 0 min 0 W/m 6,4 km/h (2 Bft) 97,87 %
26.10.2020 19:00 11,0 C 10,0 C 8,9 C 80 % 1003,0 hPa 0,0 l/m 0 min 0 min 0 W/m 0,0 km/h (0 Bft) 97,87 %
26.10.2020 19:02 11,0 C 10,0 C 8,9 C 80 % 1002,9 hPa 0,0 l/m 0 min 0 min 0 W/m 0,0 km/h (0 Bft) 95,74 %
26.10.2020 19:04 11,0 C 10,0 C 8,9 C 80 % 1003,0 hPa 0,0 l/m 0 min 0 min 0 W/m 9,7 km/h (2 Bft) 97,83 %
26.10.2020 19:06 11,0 C 10,0 C 8,9 C 80 % 1003,0 hPa 0,0 l/m 0 min 0 min 0 W/m 0,0 km/h (0 Bft) 97,87 %
26.10.2020 19:08 11,0 C 10,0 C 8,9 C 81 % 1002,9 hPa 0,0 l/m 0 min 0 min 0 W/m 0,0 km/h (0 Bft) 97,87 %
26.10.2020 19:10 11,0 C 9,4 C 8,9 C 81 % 1003,0 hPa 0,0 l/m 0 min 0 min 0 W/m 0,0 km/h (0 Bft) 97,87 %
26.10.2020 19:12 10,9 C 10,0 C 8,4 C 81 % 1003,1 hPa 0,0 l/m 0 min 0 min 0 W/m 12,9 km/h (3 Bft) 97,87 %
26.10.2020 19:14 10,9 C 10,0 C 8,9 C 81 % 1003,0 hPa 0,0 l/m 0 min 0 min 0 W/m 0,0 km/h (0 Bft) 97,87 %
26.10.2020 19:16 10,9 C 10,0 C 8,9 C 81 % 1003,1 hPa 0,0 l/m 0 min 0 min 0 W/m 0,0 km/h (0 Bft) 95,65 %
26.10.2020 19:18 10,9 C 10,0 C 8,9 C 82 % 1003,0 hPa 0,0 l/m 0 min 0 min 0 W/m 0,0 km/h (0 Bft) 95,74 %
26.10.2020 19:20 10,9 C 10,0 C 8,9 C 82 % 1003,0 hPa 0,0 l/m 0 min 0 min 0 W/m 0,0 km/h (0 Bft) 95,74 %
26.10.2020 19:22 10,8 C 10,0 C 8,9 C 82 % 1003,0 hPa 0,0 l/m 0 min 0 min 0 W/m 0,0 km/h (0 Bft) 97,87 %
26.10.2020 19:24 10,8 C 10,0 C 8,9 C 82 % 1003,0 hPa 0,0 l/m 0 min 0 min 0 W/m 0,0 km/h (0 Bft) 91,49 %
26.10.2020 19:26 10,8 C 10,0 C 8,9 C 82 % 1003,0 hPa 0,0 l/m 0 min 0 min 0 W/m 0,0 km/h (0 Bft) 93,62 %
26.10.2020 19:28 10,8 C 10,0 C 8,9 C 82 % 1003,0 hPa 0,0 l/m 0 min 0 min 0 W/m 0,0 km/h (0 Bft) 95,65 %
26.10.2020 19:30 10,8 C 10,0 C 8,9 C 82 % 1003,1 hPa 0,0 l/m 0 min 0 min 0 W/m 0,0 km/h (0 Bft) 95,12 %
26.10.2020 19:32 10,8 C 10,0 C 8,9 C 82 % 1003,1 hPa 0,0 l/m 0 min 0 min 0 W/m 9,7 km/h (2 Bft) 98,11 %
26.10.2020 19:34 10,8 C 10,0 C 8,9 C 82 % 1003,1 hPa 0,0 l/m 0 min 0 min 0 W/m 6,4 km/h (2 Bft) 95,74 %
26.10.2020 19:36 10,8 C 10,0 C 8,9 C 83 % 1003,3 hPa 0,0 l/m 0 min 0 min 0 W/m 6,4 km/h (2 Bft) 97,87 %
26.10.2020 19:38 10,7 C 10,0 C 8,9 C 83 % 1003,2 hPa 0,0 l/m 0 min 0 min 0 W/m 3,2 km/h (1 Bft) 97,87 %
26.10.2020 19:40 10,7 C 10,0 C 8,9 C 83 % 1003,2 hPa 0,0 l/m 0 min 0 min 0 W/m 0,0 km/h (0 Bft) 97,83 %
26.10.2020 19:42 10,7 C 10,0 C 8,9 C 82 % 1003,3 hPa 0,0 l/m 0 min 0 min 0 W/m 3,2 km/h (1 Bft) 93,62 %
26.10.2020 19:44 10,7 C 10,0 C 8,9 C 82 % 1003,3 hPa 0,0 l/m 0 min 0 min 0 W/m 12,9 km/h (3 Bft) 97,87 %
26.10.2020 19:46 10,7 C 10,0 C 8,9 C 82 % 1003,3 hPa 0,0 l/m 0 min 0 min 0 W/m 12,9 km/h (3 Bft) 97,87 %
26.10.2020 19:48 10,7 C 10,0 C 8,9 C 82 % 1003,3 hPa 0,0 l/m 0 min 0 min 0 W/m 16,1 km/h (3 Bft) 97,87 %
26.10.2020 19:50 10,7 C 10,0 C 8,9 C 82 % 1003,4 hPa 0,0 l/m 0 min 0 min 0 W/m 6,4 km/h (2 Bft) 97,87 %
26.10.2020 19:52 10,7 C 10,0 C 8,9 C 82 % 1003,3 hPa 0,0 l/m 0 min 0 min 0 W/m 3,2 km/h (1 Bft) 97,83 %
26.10.2020 19:54 10,7 C 10,0 C 8,9 C 82 % 1003,4 hPa 0,0 l/m 0 min 0 min 0 W/m 22,5 km/h (4 Bft) 97,87 %
26.10.2020 19:56 10,7 C 10,0 C 8,9 C 83 % 1003,4 hPa 0,0 l/m 0 min 0 min 0 W/m 3,2 km/h (1 Bft) 97,87 %
26.10.2020 19:58 10,7 C 10,0 C 8,9 C 83 % 1003,4 hPa 0,0 l/m 0 min 0 min 0 W/m 9,7 km/h (2 Bft) 95,74 %
26.10.2020 20:00 10,7 C 10,0 C 8,9 C 83 % 1003,4 hPa 0,0 l/m 0 min 0 min 0 W/m 22,5 km/h (4 Bft) 97,87 %
26.10.2020 20:02 10,8 C 10,0 C 8,9 C 83 % 1003,4 hPa 0,0 l/m 0 min 0 min 0 W/m 16,1 km/h (3 Bft) 97,87 %
26.10.2020 20:04 10,8 C 10,0 C 8,9 C 83 % 1003,4 hPa 0,0 l/m 0 min 0 min 0 W/m 0,0 km/h (0 Bft) 100,00 %
26.10.2020 20:06 10,8 C 10,0 C 8,9 C 83 % 1003,4 hPa 0,0 l/m 0 min 0 min 0 W/m 12,9 km/h (3 Bft) 100,00 %
26.10.2020 20:08 10,8 C 10,0 C 8,9 C 83 % 1003,4 hPa 0,0 l/m 0 min 0 min 0 W/m 19,3 km/h (3 Bft) 100,00 %
26.10.2020 20:10 10,8 C 10,0 C 8,9 C 83 % 1003,5 hPa 0,0 l/m 0 min 0 min 0 W/m 19,3 km/h (3 Bft) 100,00 %
26.10.2020 20:12 10,8 C 10,0 C 8,9 C 83 % 1003,4 hPa 0,0 l/m 0 min 0 min 0 W/m 6,4 km/h (2 Bft) 95,74 %
26.10.2020 20:14 10,8 C 10,0 C 8,9 C 83 % 1003,5 hPa 0,0 l/m 0 min 0 min 0 W/m 0,0 km/h (0 Bft) 100,00 %
26.10.2020 20:16 10,8 C 10,0 C 8,9 C 83 % 1003,4 hPa 0,0 l/m 0 min 0 min 0 W/m 12,9 km/h (3 Bft) 97,87 %
26.10.2020 20:18 10,8 C 10,0 C 8,9 C 83 % 1003,4 hPa 0,0 l/m 0 min 0 min 0 W/m 3,2 km/h (1 Bft) 100,00 %
26.10.2020 20:20 10,8 C 10,0 C 8,9 C 83 % 1003,5 hPa 0,0 l/m 0 min 0 min 0 W/m 0,0 km/h (0 Bft) 97,87 %
26.10.2020 20:22 10,8 C 10,0 C 8,9 C 83 % 1003,5 hPa 0,0 l/m 0 min 0 min 0 W/m 16,1 km/h (3 Bft) 100,00 %
26.10.2020 20:24 10,8 C 10,0 C 8,9 C 83 % 1003,5 hPa 0,0 l/m 0 min 0 min 0 W/m 3,2 km/h (1 Bft) 97,87 %
26.10.2020 20:26 10,8 C 10,0 C 8,9 C 83 % 1003,6 hPa 0,0 l/m 0 min 0 min 0 W/m 3,2 km/h (1 Bft) 97,83 %
26.10.2020 20:28 10,8 C 10,0 C 8,9 C 83 % 1003,5 hPa 0,0 l/m 0 min 0 min 0 W/m 25,7 km/h (4 Bft) 97,87 %
26.10.2020 20:30 10,8 C 10,0 C 8,9 C 83 % 1003,5 hPa 0,0 l/m 0 min 0 min 0 W/m 25,7 km/h (4 Bft) 97,87 %
26.10.2020 20:32 10,8 C 10,0 C 8,9 C 83 % 1003,5 hPa 0,0 l/m 0 min 0 min 0 W/m 3,2 km/h (1 Bft) 97,83 %
26.10.2020 20:34 10,8 C 10,0 C 8,9 C 83 % 1003,6 hPa 0,0 l/m 0 min 0 min 0 W/m 0,0 km/h (0 Bft) 97,87 %
26.10.2020 20:36 10,8 C 10,0 C 8,9 C 83 % 1003,5 hPa 0,0 l/m 0 min 0 min 0 W/m 6,4 km/h (2 Bft) 95,74 %
26.10.2020 20:38 10,7 C 10,0 C 8,9 C 83 % 1003,5 hPa 0,0 l/m 0 min 0 min 0 W/m 12,9 km/h (3 Bft) 97,83 %
26.10.2020 20:40 10,7 C 10,0 C 8,9 C 83 % 1003,5 hPa 0,0 l/m 0 min 0 min 0 W/m 12,9 km/h (3 Bft) 97,87 %
26.10.2020 20:42 10,7 C 10,0 C 8,9 C 83 % 1003,5 hPa 0,0 l/m 0 min 0 min 0 W/m 6,4 km/h (2 Bft) 97,87 %
26.10.2020 20:44 10,7 C 10,0 C 8,9 C 83 % 1003,4 hPa 0,0 l/m 0 min 0 min 0 W/m 3,2 km/h (1 Bft) 97,87 %
26.10.2020 20:46 10,7 C 10,0 C 8,9 C 83 % 1003,5 hPa 0,0 l/m 0 min 0 min 0 W/m 0,0 km/h (0 Bft) 97,87 %
26.10.2020 20:48 10,7 C 10,0 C 8,9 C 83 % 1003,5 hPa 0,0 l/m 0 min 0 min 0 W/m 3,2 km/h (1 Bft) 97,87 %
26.10.2020 20:50 10,6 C 9,4 C 8,4 C 83 % 1003,5 hPa 0,0 l/m 0 min 0 min 0 W/m 3,2 km/h (1 Bft) 97,83 %
26.10.2020 20:52 10,6 C 9,4 C 8,4 C 83 % 1003,5 hPa 0,0 l/m 0 min 0 min 0 W/m 12,9 km/h (3 Bft) 97,87 %
26.10.2020 20:54 10,6 C 9,4 C 8,4 C 83 % 1003,5 hPa 0,0 l/m 0 min 0 min 0 W/m 12,9 km/h (3 Bft) 95,74 %
26.10.2020 20:56 10,6 C 9,4 C 8,4 C 84 % 1003,5 hPa 0,0 l/m 0 min 0 min 0 W/m 12,9 km/h (3 Bft) 97,87 %
26.10.2020 20:58 10,6 C 9,4 C 8,4 C 84 % 1003,5 hPa 0,0 l/m 0 min 0 min 0 W/m 12,9 km/h (3 Bft) 97,87 %
26.10.2020 21:00 10,6 C 9,4 C 8,4 C 84 % 1003,6 hPa 0,0 l/m 0 min 0 min 0 W/m 19,3 km/h (3 Bft) 97,87 %
26.10.2020 21:02 10,6 C 9,4 C 8,4 C 84 % 1003,6 hPa 0,0 l/m 0 min 0 min 0 W/m 0,0 km/h (0 Bft) 97,83 %
26.10.2020 21:04 10,5 C 9,4 C 8,4 C 84 % 1003,6 hPa 0,0 l/m 0 min 0 min 0 W/m 6,4 km/h (2 Bft) 97,87 %
26.10.2020 21:06 10,5 C 9,4 C 8,4 C 84 % 1003,6 hPa 0,0 l/m 0 min 0 min 0 W/m 16,1 km/h (3 Bft) 97,87 %
26.10.2020 21:08 10,5 C 9,4 C 8,4 C 84 % 1003,7 hPa 0,0 l/m 0 min 0 min 0 W/m 9,7 km/h (2 Bft) 97,87 %
26.10.2020 21:10 10,5 C 9,4 C 8,4 C 84 % 1003,7 hPa 0,0 l/m 0 min 0 min 0 W/m 6,4 km/h (2 Bft) 97,87 %
26.10.2020 21:12 10,4 C 9,4 C 8,4 C 84 % 1003,7 hPa 0,0 l/m 0 min 0 min 0 W/m 9,7 km/h (2 Bft) 97,83 %
26.10.2020 21:14 10,4 C 9,4 C 8,4 C 84 % 1003,7 hPa 0,0 l/m 0 min 0 min 0 W/m 6,4 km/h (2 Bft) 97,87 %
26.10.2020 21:16 10,4 C 9,4 C 8,4 C 84 % 1003,7 hPa 0,0 l/m 0 min 0 min 0 W/m 3,2 km/h (1 Bft) 95,74 %
26.10.2020 21:18 10,4 C 9,4 C 8,4 C 84 % 1003,7 hPa 0,0 l/m 0 min 0 min 0 W/m 0,0 km/h (0 Bft) 95,74 %
26.10.2020 21:20 10,4 C 9,4 C 8,4 C 84 % 1003,7 hPa 0,0 l/m 0 min 0 min 0 W/m 0,0 km/h (0 Bft) 97,87 %
26.10.2020 21:22 10,3 C 9,4 C 8,4 C 84 % 1003,8 hPa 0,0 l/m 0 min 0 min 0 W/m 3,2 km/h (1 Bft) 95,74 %
26.10.2020 21:24 10,3 C 9,4 C 8,4 C 84 % 1003,8 hPa 0,0 l/m 0 min 0 min 0 W/m 3,2 km/h (1 Bft) 97,87 %
26.10.2020 21:26 10,3 C 9,4 C 8,4 C 85 % 1003,7 hPa 0,0 l/m 0 min 0 min 0 W/m 3,2 km/h (1 Bft) 95,65 %
26.10.2020 21:28 10,3 C 9,4 C 8,4 C 85 % 1003,7 hPa 0,0 l/m 0 min 0 min 0 W/m 9,7 km/h (2 Bft) 95,74 %
26.10.2020 21:30 10,3 C 9,4 C 8,4 C 85 % 1003,8 hPa 0,0 l/m 0 min 0 min 0 W/m 16,1 km/h (3 Bft) 100,00 %
26.10.2020 21:32 10,3 C 10,0 C 8,4 C 85 % 1003,7 hPa 0,0 l/m 0 min 0 min 0 W/m 12,9 km/h (3 Bft) 95,83 %
26.10.2020 21:34 10,3 C 10,0 C 8,4 C 85 % 1003,8 hPa 0,0 l/m 0 min 0 min 0 W/m 22,5 km/h (4 Bft) 97,44 %
26.10.2020 21:36 10,3 C 10,0 C 8,9 C 85 % 1003,7 hPa 0,0 l/m 0 min 0 min 0 W/m 16,1 km/h (3 Bft) 95,74 %
26.10.2020 21:38 10,3 C 10,0 C 8,9 C 85 % 1003,8 hPa 0,0 l/m 0 min 0 min 0 W/m 32,2 km/h (5 Bft) 94,83 %
26.10.2020 21:40 10,3 C 10,0 C 8,9 C 85 % 1003,7 hPa 0,0 l/m 0 min 0 min 0 W/m 19,3 km/h (3 Bft) 100,00 %
26.10.2020 21:42 10,4 C 10,0 C 8,9 C 85 % 1003,7 hPa 0,0 l/m 0 min 0 min 0 W/m 29,0 km/h (5 Bft) 97,83 %
26.10.2020 21:44 10,4 C 10,0 C 8,9 C 85 % 1003,7 hPa 0,0 l/m 0 min 0 min 0 W/m 22,5 km/h (4 Bft) 95,74 %
26.10.2020 21:46 10,4 C 10,0 C 8,9 C 85 % 1003,7 hPa 0,0 l/m 0 min 0 min 0 W/m 25,7 km/h (4 Bft) 95,74 %
26.10.2020 21:48 10,4 C 10,0 C 8,9 C 85 % 1003,7 hPa 0,0 l/m 0 min 0 min 0 W/m 19,3 km/h (3 Bft) 95,74 %
26.10.2020 21:50 10,4 C 10,0 C 8,9 C 85 % 1003,7 hPa 0,0 l/m 0 min 0 min 0 W/m 19,3 km/h (3 Bft) 97,87 %
26.10.2020 21:52 10,4 C 10,0 C 8,9 C 84 % 1003,8 hPa 0,0 l/m 0 min 0 min 0 W/m 19,3 km/h (3 Bft) 98,11 %
26.10.2020 21:54 10,5 C 10,0 C 8,9 C 84 % 1003,7 hPa 0,0 l/m 0 min 0 min 0 W/m 12,9 km/h (3 Bft) 97,87 %
26.10.2020 21:56 10,5 C 10,0 C 8,9 C 84 % 1003,7 hPa 0,0 l/m 0 min 0 min 0 W/m 3,2 km/h (1 Bft) 97,87 %
26.10.2020 21:58 10,5 C 10,0 C 8,9 C 84 % 1003,7 hPa 0,0 l/m 0 min 0 min 0 W/m 19,3 km/h (3 Bft) 97,87 %
26.10.2020 22:00 10,5 C 10,0 C 8,9 C 84 % 1003,8 hPa 0,0 l/m 0 min 0 min 0 W/m 22,5 km/h (4 Bft) 97,83 %
26.10.2020 22:02 10,5 C 10,0 C 8,9 C 84 % 1003,7 hPa 0,0 l/m 0 min 0 min 0 W/m 9,7 km/h (2 Bft) 97,87 %
26.10.2020 22:04 10,5 C 10,0 C 8,9 C 84 % 1003,7 hPa 0,0 l/m 0 min 0 min 0 W/m 22,5 km/h (4 Bft) 91,49 %
26.10.2020 22:06 10,5 C 10,0 C 8,9 C 84 % 1003,7 hPa 0,0 l/m 0 min 0 min 0 W/m 19,3 km/h (3 Bft) 95,74 %
26.10.2020 22:08 10,5 C 10,0 C 8,9 C 84 % 1003,6 hPa 0,0 l/m 0 min 0 min 0 W/m 3,2 km/h (1 Bft) 93,62 %
26.10.2020 22:10 10,5 C 10,0 C 8,4 C 84 % 1003,7 hPa 0,0 l/m 0 min 0 min 0 W/m 0,0 km/h (0 Bft) 95,74 %
26.10.2020 22:12 10,5 C 9,4 C 8,4 C 84 % 1003,7 hPa 0,0 l/m 0 min 0 min 0 W/m 25,7 km/h (4 Bft) 93,48 %
26.10.2020 22:14 10,5 C 10,0 C 8,4 C 84 % 1003,6 hPa 0,0 l/m 0 min 0 min 0 W/m 35,4 km/h (5 Bft) 95,74 %
26.10.2020 22:16 10,5 C 10,0 C 8,4 C 84 % 1003,7 hPa 0,0 l/m 0 min 0 min 0 W/m 6,4 km/h (2 Bft) 95,74 %
26.10.2020 22:18 10,5 C 9,4 C 8,4 C 84 % 1003,7 hPa 0,0 l/m 0 min 0 min 0 W/m 0,0 km/h (0 Bft) 95,74 %
26.10.2020 22:20 10,5 C 9,4 C 8,4 C 84 % 1003,6 hPa 0,0 l/m 0 min 0 min 0 W/m 0,0 km/h (0 Bft) 95,74 %
26.10.2020 22:22 10,5 C 9,4 C 8,4 C 84 % 1003,7 hPa 0,0 l/m 0 min 0 min 0 W/m 3,2 km/h (1 Bft) 97,83 %
26.10.2020 22:24 10,5 C 9,4 C 8,4 C 84 % 1003,7 hPa 0,0 l/m 0 min 0 min 0 W/m 6,4 km/h (2 Bft) 97,87 %
26.10.2020 22:26 10,5 C 9,4 C 8,4 C 84 % 1003,7 hPa 0,0 l/m 0 min 0 min 0 W/m 12,9 km/h (3 Bft) 95,74 %
26.10.2020 22:28 10,4 C 9,4 C 8,4 C 85 % 1003,7 hPa 0,0 l/m 0 min 0 min 0 W/m 16,1 km/h (3 Bft) 95,74 %
26.10.2020 22:30 10,4 C 9,4 C 8,4 C 85 % 1003,8 hPa 0,0 l/m 0 min 0 min 0 W/m 16,1 km/h (3 Bft) 93,62 %
26.10.2020 22:32 10,4 C 9,4 C 8,4 C 85 % 1003,7 hPa 0,0 l/m 0 min 0 min 0 W/m 3,2 km/h (1 Bft) 97,87 %
26.10.2020 22:34 10,4 C 9,4 C 8,4 C 85 % 1003,8 hPa 0,0 l/m 0 min 0 min 0 W/m 0,0 km/h (0 Bft) 89,36 %
26.10.2020 22:38 10,4 C 10,0 C 8,4 C 85 % 1003,8 hPa 0,0 l/m 0 min 0 min 0 W/m 16,1 km/h (3 Bft) 80,85 %
26.10.2020 22:40 10,4 C 10,0 C 8,4 C 85 % 1003,8 hPa 0,0 l/m 0 min 0 min 0 W/m 9,7 km/h (2 Bft) 97,87 %
26.10.2020 22:42 10,4 C 10,0 C 8,4 C 85 % 1003,8 hPa 0,0 l/m 0 min 0 min 0 W/m 6,4 km/h (2 Bft) 95,74 %
26.10.2020 22:44 10,4 C 10,0 C 8,4 C 85 % 1003,8 hPa 0,0 l/m 0 min 0 min 0 W/m 6,4 km/h (2 Bft) 97,87 %
26.10.2020 22:46 10,4 C 10,0 C 8,4 C 85 % 1003,8 hPa 0,0 l/m 0 min 0 min 0 W/m 6,4 km/h (2 Bft) 95,74 %
26.10.2020 22:48 10,4 C 9,4 C 8,4 C 85 % 1003,8 hPa 0,0 l/m 0 min 0 min 0 W/m 6,4 km/h (2 Bft) 97,83 %
26.10.2020 22:50 10,4 C 9,4 C 8,4 C 85 % 1003,8 hPa 0,0 l/m 0 min 0 min 0 W/m 19,3 km/h (3 Bft) 97,87 %
26.10.2020 22:52 10,4 C 10,0 C 8,4 C 85 % 1003,7 hPa 0,0 l/m 0 min 0 min 0 W/m 12,9 km/h (3 Bft) 97,87 %
26.10.2020 22:54 10,4 C 9,4 C 8,4 C 85 % 1003,8 hPa 0,0 l/m 0 min 0 min 0 W/m 0,0 km/h (0 Bft) 100,00 %
26.10.2020 22:56 10,4 C 10,0 C 8,4 C 85 % 1003,8 hPa 0,0 l/m 0 min 0 min 0 W/m 22,5 km/h (4 Bft) 100,00 %
26.10.2020 22:58 10,4 C 10,0 C 8,4 C 85 % 1003,8 hPa 0,0 l/m 0 min 0 min 0 W/m 16,1 km/h (3 Bft) 100,00 %
26.10.2020 23:00 10,4 C 10,0 C 8,4 C 85 % 1003,8 hPa 0,0 l/m 0 min 0 min 0 W/m 19,3 km/h (3 Bft) 100,00 %
26.10.2020 23:02 10,4 C 10,0 C 8,4 C 85 % 1003,8 hPa 0,0 l/m 0 min 0 min 0 W/m 19,3 km/h (3 Bft) 97,87 %
26.10.2020 23:04 10,4 C 10,0 C 8,9 C 85 % 1003,8 hPa 0,0 l/m 0 min 0 min 0 W/m 22,5 km/h (4 Bft) 100,00 %
26.10.2020 23:06 10,4 C 10,0 C 8,4 C 85 % 1003,8 hPa 0,0 l/m 0 min 0 min 0 W/m 16,1 km/h (3 Bft) 100,00 %
26.10.2020 23:08 10,4 C 10,0 C 8,4 C 85 % 1003,8 hPa 0,0 l/m 0 min 0 min 0 W/m 25,7 km/h (4 Bft) 97,87 %
26.10.2020 23:10 10,4 C 10,0 C 8,9 C 85 % 1003,7 hPa 0,0 l/m 0 min 0 min 0 W/m 19,3 km/h (3 Bft) 100,00 %
26.10.2020 23:12 10,4 C 10,0 C 8,9 C 85 % 1003,8 hPa 0,0 l/m 0 min 0 min 0 W/m 16,1 km/h (3 Bft) 100,00 %
26.10.2020 23:14 10,4 C 10,0 C 8,9 C 85 % 1003,7 hPa 0,0 l/m 0 min 0 min 0 W/m 22,5 km/h (4 Bft) 100,00 %
26.10.2020 23:16 10,4 C 10,0 C 8,4 C 85 % 1003,7 hPa 0,0 l/m 0 min 0 min 0 W/m 22,5 km/h (4 Bft) 100,00 %
26.10.2020 23:18 10,4 C 10,0 C 8,9 C 85 % 1003,7 hPa 0,0 l/m 0 min 0 min 0 W/m 22,5 km/h (4 Bft) 100,00 %
26.10.2020 23:20 10,4 C 10,0 C 8,9 C 85 % 1003,8 hPa 0,0 l/m 0 min 0 min 0 W/m 22,5 km/h (4 Bft) 100,00 %
26.10.2020 23:22 10,4 C 10,0 C 8,9 C 85 % 1003,8 hPa 0,0 l/m 0 min 0 min 0 W/m 16,1 km/h (3 Bft) 100,00 %
26.10.2020 23:24 10,4 C 10,0 C 8,9 C 85 % 1003,8 hPa 0,0 l/m 0 min 0 min 0 W/m 6,4 km/h (2 Bft) 97,87 %
26.10.2020 23:26 10,4 C 10,0 C 8,9 C 85 % 1003,8 hPa 0,0 l/m 0 min 0 min 0 W/m 22,5 km/h (4 Bft) 100,00 %
26.10.2020 23:28 10,4 C 10,0 C 8,4 C 85 % 1003,8 hPa 0,0 l/m 0 min 0 min 0 W/m 6,4 km/h (2 Bft) 100,00 %
26.10.2020 23:30 10,4 C 10,0 C 8,9 C 85 % 1003,8 hPa 0,0 l/m 0 min 0 min 0 W/m 25,7 km/h (4 Bft) 100,00 %
26.10.2020 23:32 10,4 C 10,0 C 8,9 C 85 % 1003,8 hPa 0,0 l/m 0 min 0 min 0 W/m 12,9 km/h (3 Bft) 100,00 %
26.10.2020 23:34 10,4 C 10,0 C 8,9 C 85 % 1003,8 hPa 0,0 l/m 0 min 0 min 0 W/m 22,5 km/h (4 Bft) 100,00 %
26.10.2020 23:36 10,4 C 10,0 C 8,9 C 85 % 1003,8 hPa 0,0 l/m 0 min 0 min 0 W/m 12,9 km/h (3 Bft) 100,00 %
26.10.2020 23:38 10,4 C 10,0 C 8,9 C 85 % 1003,9 hPa 0,0 l/m 0 min 0 min 0 W/m 9,7 km/h (2 Bft) 100,00 %
26.10.2020 23:40 10,4 C 9,4 C 8,4 C 85 % 1003,9 hPa 0,0 l/m 0 min 0 min 0 W/m 6,4 km/h (2 Bft) 100,00 %
26.10.2020 23:42 10,4 C 9,4 C 8,4 C 85 % 1003,8 hPa 0,0 l/m 0 min 0 min 0 W/m 6,4 km/h (2 Bft) 100,00 %
26.10.2020 23:44 10,4 C 10,0 C 8,9 C 85 % 1003,9 hPa 0,0 l/m 0 min 0 min 0 W/m 19,3 km/h (3 Bft) 97,87 %
26.10.2020 23:46 10,4 C 10,0 C 8,9 C 85 % 1003,9 hPa 0,0 l/m 0 min 0 min 0 W/m 19,3 km/h (3 Bft) 100,00 %
26.10.2020 23:48 10,4 C 10,0 C 8,9 C 85 % 1003,9 hPa 0,0 l/m 0 min 0 min 0 W/m 12,9 km/h (3 Bft) 100,00 %
26.10.2020 23:50 10,4 C 10,0 C 8,4 C 85 % 1003,9 hPa 0,0 l/m 0 min 0 min 0 W/m 16,1 km/h (3 Bft) 100,00 %
26.10.2020 23:52 10,4 C 10,0 C 8,4 C 85 % 1003,9 hPa 0,0 l/m 0 min 0 min 0 W/m 6,4 km/h (2 Bft) 100,00 %
26.10.2020 23:54 10,4 C 10,0 C 8,9 C 85 % 1004,0 hPa 0,0 l/m 0 min 0 min 0 W/m 25,7 km/h (4 Bft) 97,87 %
26.10.2020 23:56 10,4 C 10,0 C 8,9 C 85 % 1004,0 hPa 0,0 l/m 0 min 0 min 0 W/m 22,5 km/h (4 Bft) 100,00 %
26.10.2020 23:58 10,4 C 10,0 C 8,9 C 85 % 1003,9 hPa 0,0 l/m 0 min 0 min 0 W/m 12,9 km/h (3 Bft) 100,00 %
_ Min-Zeit 07:40 06:18 06:22 14:40 06:14 - - - - 00:00 16:08
Minimum _ 9,0 C 8,3 C 7,8 C 75 % 1000,6 hPa - - - - 0,0 km/h (0 Bft) 70,21 %
_ Max-Zeit 13:48 13:32 12:50 00:38 23:54 00:00 09:50 00:50 13:32 09:22 00:00
Maximum _ 12,5 C 15,6 C 11,7 C 97 % 1004,0 hPa 0,0 l/m 2 min 2 min 419 W/m 41,8 km/h
O-SO (6 Bft)
100,00 %
Durchschnitt _ 10,7 C 10,3 C 9,2 C 86 % 1002,3 hPa #0,0 l/m #1:06 h #14 min. 105 W/m 9,9 km/h (2 Bft) 97,46 %
© 2020 W. Hausmann